<?xml version="1.0" encoding="UTF-8" standalone="no" ?>
<gpx xmlns="http://www.topografix.com/GPX/1/1" xmlns:xsi="http://www.w3.org/2001/XMLSchema-instance" xsi:schemaLocation="http://www.topografix.com/GPX/1/1 http://www.topografix.com/GPX/1/1/gpx.xsd" version="1.1" creator="VisuGPX - https://www.visugpx.com">
  <metadata>
    <name>Bussy les Daours Église </name>
    <desc><![CDATA[LES CHEMINS EN SOMME
Situation : 13 kms à l Est  d Amiens.
Départ : Château de Bussy les Daours
De l église de Bussy, se diriger vers le marais. Prendre la passerelle pour franchir l?Hallue. Longer le marais d hallue vers le nord. Apres le marais de Querrieu, prendre le chemin à gauche vers le camping puis le village. Revenir à Bussy par les chemins de plaine.
]]></desc>
  </metadata>
  <trk>
    <name><![CDATA[2019-10-17-01]]></name>
    <trkseg>
      <trkpt lat="49.91165" lon="2.43206">
        <ele>37.6</ele>
        <time>2019-10-17T07:03:05Z</time>
      </trkpt>
      <trkpt lat="49.91164" lon="2.43207">
        <ele>37.6</ele>
        <time>2019-10-17T07:03:06Z</time>
      </trkpt>
      <trkpt lat="49.91155" lon="2.43205">
        <ele>36.5</ele>
        <time>2019-10-17T07:03:22Z</time>
      </trkpt>
      <trkpt lat="49.91149" lon="2.43215">
        <ele>36.5</ele>
        <time>2019-10-17T07:03:34Z</time>
      </trkpt>
      <trkpt lat="49.91142" lon="2.43226">
        <ele>36.9</ele>
        <time>2019-10-17T07:03:41Z</time>
      </trkpt>
      <trkpt lat="49.91137" lon="2.43239">
        <ele>37.7</ele>
        <time>2019-10-17T07:03:51Z</time>
      </trkpt>
      <trkpt lat="49.9113" lon="2.4325">
        <ele>37.1</ele>
        <time>2019-10-17T07:03:59Z</time>
      </trkpt>
      <trkpt lat="49.91124" lon="2.43261">
        <ele>37.5</ele>
        <time>2019-10-17T07:04:07Z</time>
      </trkpt>
      <trkpt lat="49.91116" lon="2.4327">
        <ele>37.2</ele>
        <time>2019-10-17T07:04:17Z</time>
      </trkpt>
      <trkpt lat="49.91108" lon="2.43279">
        <ele>37.3</ele>
        <time>2019-10-17T07:04:23Z</time>
      </trkpt>
      <trkpt lat="49.911" lon="2.43287">
        <ele>37.7</ele>
        <time>2019-10-17T07:04:32Z</time>
      </trkpt>
      <trkpt lat="49.91091" lon="2.43293">
        <ele>37</ele>
        <time>2019-10-17T07:04:40Z</time>
      </trkpt>
      <trkpt lat="49.91083" lon="2.43298">
        <ele>37.4</ele>
        <time>2019-10-17T07:04:48Z</time>
      </trkpt>
      <trkpt lat="49.91074" lon="2.43302">
        <ele>36.9</ele>
        <time>2019-10-17T07:04:56Z</time>
      </trkpt>
      <trkpt lat="49.91064" lon="2.43307">
        <ele>37.5</ele>
        <time>2019-10-17T07:05:05Z</time>
      </trkpt>
      <trkpt lat="49.91055" lon="2.43311">
        <ele>37.6</ele>
        <time>2019-10-17T07:05:14Z</time>
      </trkpt>
      <trkpt lat="49.91045" lon="2.43317">
        <ele>37</ele>
        <time>2019-10-17T07:05:22Z</time>
      </trkpt>
      <trkpt lat="49.91036" lon="2.43323">
        <ele>36.1</ele>
        <time>2019-10-17T07:05:30Z</time>
      </trkpt>
      <trkpt lat="49.91027" lon="2.43329">
        <ele>37.5</ele>
        <time>2019-10-17T07:05:39Z</time>
      </trkpt>
      <trkpt lat="49.91018" lon="2.43334">
        <ele>36.7</ele>
        <time>2019-10-17T07:05:47Z</time>
      </trkpt>
      <trkpt lat="49.91008" lon="2.43337">
        <ele>37.2</ele>
        <time>2019-10-17T07:05:56Z</time>
      </trkpt>
      <trkpt lat="49.90998" lon="2.43341">
        <ele>37.5</ele>
        <time>2019-10-17T07:06:03Z</time>
      </trkpt>
      <trkpt lat="49.9099" lon="2.4335">
        <ele>36.4</ele>
        <time>2019-10-17T07:06:11Z</time>
      </trkpt>
      <trkpt lat="49.90981" lon="2.43355">
        <ele>37.7</ele>
        <time>2019-10-17T07:06:19Z</time>
      </trkpt>
      <trkpt lat="49.90973" lon="2.43362">
        <ele>37.1</ele>
        <time>2019-10-17T07:06:27Z</time>
      </trkpt>
      <trkpt lat="49.90963" lon="2.43366">
        <ele>37.5</ele>
        <time>2019-10-17T07:06:36Z</time>
      </trkpt>
      <trkpt lat="49.90954" lon="2.43368">
        <ele>37.9</ele>
        <time>2019-10-17T07:07:10Z</time>
      </trkpt>
      <trkpt lat="49.90962" lon="2.4336">
        <ele>38</ele>
        <time>2019-10-17T07:08:42Z</time>
      </trkpt>
      <trkpt lat="49.90954" lon="2.43368">
        <ele>37.8</ele>
        <time>2019-10-17T07:09:34Z</time>
      </trkpt>
      <trkpt lat="49.90948" lon="2.43378">
        <ele>38</ele>
        <time>2019-10-17T07:11:21Z</time>
      </trkpt>
      <trkpt lat="49.90938" lon="2.43379">
        <ele>36.3</ele>
        <time>2019-10-17T07:17:46Z</time>
      </trkpt>
      <trkpt lat="49.9093" lon="2.43387">
        <ele>37.3</ele>
        <time>2019-10-17T07:17:55Z</time>
      </trkpt>
      <trkpt lat="49.90921" lon="2.43393">
        <ele>38.2</ele>
        <time>2019-10-17T07:18:04Z</time>
      </trkpt>
      <trkpt lat="49.90913" lon="2.434">
        <ele>38.4</ele>
        <time>2019-10-17T07:18:13Z</time>
      </trkpt>
      <trkpt lat="49.90905" lon="2.43409">
        <ele>37.4</ele>
        <time>2019-10-17T07:18:22Z</time>
      </trkpt>
      <trkpt lat="49.90897" lon="2.43415">
        <ele>37.4</ele>
        <time>2019-10-17T07:18:34Z</time>
      </trkpt>
      <trkpt lat="49.90897" lon="2.4343">
        <ele>37.6</ele>
        <time>2019-10-17T07:18:44Z</time>
      </trkpt>
      <trkpt lat="49.90896" lon="2.43446">
        <ele>37.6</ele>
        <time>2019-10-17T07:18:53Z</time>
      </trkpt>
      <trkpt lat="49.90896" lon="2.43461">
        <ele>37.7</ele>
        <time>2019-10-17T07:19:02Z</time>
      </trkpt>
      <trkpt lat="49.90896" lon="2.43477">
        <ele>36.6</ele>
        <time>2019-10-17T07:19:11Z</time>
      </trkpt>
      <trkpt lat="49.90897" lon="2.43493">
        <ele>35.6</ele>
        <time>2019-10-17T07:19:20Z</time>
      </trkpt>
      <trkpt lat="49.90897" lon="2.43507">
        <ele>36.4</ele>
        <time>2019-10-17T07:19:28Z</time>
      </trkpt>
      <trkpt lat="49.90897" lon="2.43521">
        <ele>36.6</ele>
        <time>2019-10-17T07:19:35Z</time>
      </trkpt>
      <trkpt lat="49.90896" lon="2.43536">
        <ele>35.7</ele>
        <time>2019-10-17T07:19:42Z</time>
      </trkpt>
      <trkpt lat="49.90894" lon="2.4355">
        <ele>34.5</ele>
        <time>2019-10-17T07:19:49Z</time>
      </trkpt>
      <trkpt lat="49.90893" lon="2.43565">
        <ele>35.4</ele>
        <time>2019-10-17T07:19:57Z</time>
      </trkpt>
      <trkpt lat="49.9089" lon="2.43579">
        <ele>35.9</ele>
        <time>2019-10-17T07:20:06Z</time>
      </trkpt>
      <trkpt lat="49.90886" lon="2.43593">
        <ele>36</ele>
        <time>2019-10-17T07:20:13Z</time>
      </trkpt>
      <trkpt lat="49.9088" lon="2.43605">
        <ele>35.5</ele>
        <time>2019-10-17T07:20:21Z</time>
      </trkpt>
      <trkpt lat="49.90874" lon="2.43616">
        <ele>36.1</ele>
        <time>2019-10-17T07:20:29Z</time>
      </trkpt>
      <trkpt lat="49.90871" lon="2.43629">
        <ele>36.5</ele>
        <time>2019-10-17T07:20:38Z</time>
      </trkpt>
      <trkpt lat="49.90872" lon="2.43644">
        <ele>36.4</ele>
        <time>2019-10-17T07:20:57Z</time>
      </trkpt>
      <trkpt lat="49.90864" lon="2.43651">
        <ele>35.5</ele>
        <time>2019-10-17T07:21:11Z</time>
      </trkpt>
      <trkpt lat="49.90855" lon="2.43651">
        <ele>35.7</ele>
        <time>2019-10-17T07:21:19Z</time>
      </trkpt>
      <trkpt lat="49.90845" lon="2.43653">
        <ele>36.6</ele>
        <time>2019-10-17T07:21:30Z</time>
      </trkpt>
      <trkpt lat="49.90836" lon="2.43656">
        <ele>36.1</ele>
        <time>2019-10-17T07:21:40Z</time>
      </trkpt>
      <trkpt lat="49.90827" lon="2.43662">
        <ele>36.3</ele>
        <time>2019-10-17T07:21:53Z</time>
      </trkpt>
      <trkpt lat="49.90818" lon="2.43669">
        <ele>35.9</ele>
        <time>2019-10-17T07:22:08Z</time>
      </trkpt>
      <trkpt lat="49.90809" lon="2.4367">
        <ele>35.8</ele>
        <time>2019-10-17T07:22:13Z</time>
      </trkpt>
      <trkpt lat="49.908" lon="2.43675">
        <ele>36.4</ele>
        <time>2019-10-17T07:22:22Z</time>
      </trkpt>
      <trkpt lat="49.90791" lon="2.43677">
        <ele>36</ele>
        <time>2019-10-17T07:22:31Z</time>
      </trkpt>
      <trkpt lat="49.90783" lon="2.43683">
        <ele>35.9</ele>
        <time>2019-10-17T07:22:42Z</time>
      </trkpt>
      <trkpt lat="49.90773" lon="2.43687">
        <ele>35.5</ele>
        <time>2019-10-17T07:22:52Z</time>
      </trkpt>
      <trkpt lat="49.90764" lon="2.43689">
        <ele>35.6</ele>
        <time>2019-10-17T07:23:02Z</time>
      </trkpt>
      <trkpt lat="49.90754" lon="2.43693">
        <ele>36</ele>
        <time>2019-10-17T07:23:11Z</time>
      </trkpt>
      <trkpt lat="49.90746" lon="2.43702">
        <ele>35.9</ele>
        <time>2019-10-17T07:23:20Z</time>
      </trkpt>
      <trkpt lat="49.9074" lon="2.43714">
        <ele>35.8</ele>
        <time>2019-10-17T07:23:30Z</time>
      </trkpt>
      <trkpt lat="49.90743" lon="2.43728">
        <ele>34.6</ele>
        <time>2019-10-17T07:23:39Z</time>
      </trkpt>
      <trkpt lat="49.90744" lon="2.43743">
        <ele>34.4</ele>
        <time>2019-10-17T07:23:49Z</time>
      </trkpt>
      <trkpt lat="49.90749" lon="2.43755">
        <ele>35</ele>
        <time>2019-10-17T07:23:57Z</time>
      </trkpt>
      <trkpt lat="49.9075" lon="2.4377">
        <ele>35.1</ele>
        <time>2019-10-17T07:24:04Z</time>
      </trkpt>
      <trkpt lat="49.90754" lon="2.43785">
        <ele>35.2</ele>
        <time>2019-10-17T07:24:11Z</time>
      </trkpt>
      <trkpt lat="49.90758" lon="2.43799">
        <ele>35</ele>
        <time>2019-10-17T07:24:18Z</time>
      </trkpt>
      <trkpt lat="49.90761" lon="2.43814">
        <ele>34.4</ele>
        <time>2019-10-17T07:24:25Z</time>
      </trkpt>
      <trkpt lat="49.90763" lon="2.43829">
        <ele>34.3</ele>
        <time>2019-10-17T07:24:33Z</time>
      </trkpt>
      <trkpt lat="49.90767" lon="2.43843">
        <ele>35.5</ele>
        <time>2019-10-17T07:24:41Z</time>
      </trkpt>
      <trkpt lat="49.90771" lon="2.43857">
        <ele>35</ele>
        <time>2019-10-17T07:24:49Z</time>
      </trkpt>
      <trkpt lat="49.90775" lon="2.43871">
        <ele>34.9</ele>
        <time>2019-10-17T07:24:58Z</time>
      </trkpt>
      <trkpt lat="49.90779" lon="2.43884">
        <ele>35.4</ele>
        <time>2019-10-17T07:25:06Z</time>
      </trkpt>
      <trkpt lat="49.90784" lon="2.43897">
        <ele>34.4</ele>
        <time>2019-10-17T07:25:14Z</time>
      </trkpt>
      <trkpt lat="49.90789" lon="2.43908">
        <ele>35.5</ele>
        <time>2019-10-17T07:25:21Z</time>
      </trkpt>
      <trkpt lat="49.90793" lon="2.43921">
        <ele>35.8</ele>
        <time>2019-10-17T07:25:28Z</time>
      </trkpt>
      <trkpt lat="49.90796" lon="2.43935">
        <ele>35.3</ele>
        <time>2019-10-17T07:25:35Z</time>
      </trkpt>
      <trkpt lat="49.908" lon="2.43949">
        <ele>34.7</ele>
        <time>2019-10-17T07:25:43Z</time>
      </trkpt>
      <trkpt lat="49.90809" lon="2.43956">
        <ele>36.4</ele>
        <time>2019-10-17T07:25:51Z</time>
      </trkpt>
      <trkpt lat="49.90819" lon="2.43953">
        <ele>36.4</ele>
        <time>2019-10-17T07:25:59Z</time>
      </trkpt>
      <trkpt lat="49.90828" lon="2.43947">
        <ele>35.7</ele>
        <time>2019-10-17T07:26:07Z</time>
      </trkpt>
      <trkpt lat="49.90837" lon="2.43943">
        <ele>36.4</ele>
        <time>2019-10-17T07:26:15Z</time>
      </trkpt>
      <trkpt lat="49.90847" lon="2.43939">
        <ele>36</ele>
        <time>2019-10-17T07:26:24Z</time>
      </trkpt>
      <trkpt lat="49.90856" lon="2.43933">
        <ele>36.9</ele>
        <time>2019-10-17T07:26:34Z</time>
      </trkpt>
      <trkpt lat="49.90866" lon="2.4393">
        <ele>36.7</ele>
        <time>2019-10-17T07:26:41Z</time>
      </trkpt>
      <trkpt lat="49.90875" lon="2.43926">
        <ele>36.9</ele>
        <time>2019-10-17T07:26:50Z</time>
      </trkpt>
      <trkpt lat="49.90883" lon="2.4392">
        <ele>36.7</ele>
        <time>2019-10-17T07:26:59Z</time>
      </trkpt>
      <trkpt lat="49.90892" lon="2.43914">
        <ele>35.7</ele>
        <time>2019-10-17T07:27:07Z</time>
      </trkpt>
      <trkpt lat="49.909" lon="2.43907">
        <ele>36.5</ele>
        <time>2019-10-17T07:27:19Z</time>
      </trkpt>
      <trkpt lat="49.90909" lon="2.43902">
        <ele>36.9</ele>
        <time>2019-10-17T07:27:27Z</time>
      </trkpt>
      <trkpt lat="49.90918" lon="2.43894">
        <ele>35.9</ele>
        <time>2019-10-17T07:27:35Z</time>
      </trkpt>
      <trkpt lat="49.90926" lon="2.43889">
        <ele>36.1</ele>
        <time>2019-10-17T07:27:40Z</time>
      </trkpt>
      <trkpt lat="49.90937" lon="2.43885">
        <ele>36.5</ele>
        <time>2019-10-17T07:27:47Z</time>
      </trkpt>
      <trkpt lat="49.90946" lon="2.43882">
        <ele>36.3</ele>
        <time>2019-10-17T07:28:01Z</time>
      </trkpt>
      <trkpt lat="49.90955" lon="2.43876">
        <ele>35.9</ele>
        <time>2019-10-17T07:28:10Z</time>
      </trkpt>
      <trkpt lat="49.90965" lon="2.43873">
        <ele>36.7</ele>
        <time>2019-10-17T07:28:17Z</time>
      </trkpt>
      <trkpt lat="49.90974" lon="2.43868">
        <ele>36.8</ele>
        <time>2019-10-17T07:28:23Z</time>
      </trkpt>
      <trkpt lat="49.90983" lon="2.43861">
        <ele>36.3</ele>
        <time>2019-10-17T07:28:30Z</time>
      </trkpt>
      <trkpt lat="49.90991" lon="2.43856">
        <ele>37</ele>
        <time>2019-10-17T07:28:38Z</time>
      </trkpt>
      <trkpt lat="49.91" lon="2.43851">
        <ele>36.1</ele>
        <time>2019-10-17T07:28:48Z</time>
      </trkpt>
      <trkpt lat="49.91009" lon="2.43845">
        <ele>35.7</ele>
        <time>2019-10-17T07:28:55Z</time>
      </trkpt>
      <trkpt lat="49.91018" lon="2.43839">
        <ele>36.8</ele>
        <time>2019-10-17T07:29:04Z</time>
      </trkpt>
      <trkpt lat="49.91028" lon="2.43834">
        <ele>36.1</ele>
        <time>2019-10-17T07:29:12Z</time>
      </trkpt>
      <trkpt lat="49.91036" lon="2.43829">
        <ele>36</ele>
        <time>2019-10-17T07:29:19Z</time>
      </trkpt>
      <trkpt lat="49.91045" lon="2.43824">
        <ele>36.8</ele>
        <time>2019-10-17T07:29:26Z</time>
      </trkpt>
      <trkpt lat="49.91054" lon="2.43816">
        <ele>35.8</ele>
        <time>2019-10-17T07:29:34Z</time>
      </trkpt>
      <trkpt lat="49.91063" lon="2.43812">
        <ele>36.8</ele>
        <time>2019-10-17T07:29:42Z</time>
      </trkpt>
      <trkpt lat="49.91072" lon="2.43806">
        <ele>36.2</ele>
        <time>2019-10-17T07:29:49Z</time>
      </trkpt>
      <trkpt lat="49.91083" lon="2.43803">
        <ele>36.3</ele>
        <time>2019-10-17T07:29:58Z</time>
      </trkpt>
      <trkpt lat="49.91091" lon="2.43798">
        <ele>36.4</ele>
        <time>2019-10-17T07:30:07Z</time>
      </trkpt>
      <trkpt lat="49.91099" lon="2.4379">
        <ele>35.6</ele>
        <time>2019-10-17T07:30:15Z</time>
      </trkpt>
      <trkpt lat="49.91106" lon="2.43783">
        <ele>35.7</ele>
        <time>2019-10-17T07:30:22Z</time>
      </trkpt>
      <trkpt lat="49.91115" lon="2.43778">
        <ele>36.2</ele>
        <time>2019-10-17T07:30:32Z</time>
      </trkpt>
      <trkpt lat="49.91125" lon="2.43775">
        <ele>36.1</ele>
        <time>2019-10-17T07:30:38Z</time>
      </trkpt>
      <trkpt lat="49.91134" lon="2.43772">
        <ele>35.8</ele>
        <time>2019-10-17T07:30:48Z</time>
      </trkpt>
      <trkpt lat="49.91144" lon="2.43771">
        <ele>36.2</ele>
        <time>2019-10-17T07:30:56Z</time>
      </trkpt>
      <trkpt lat="49.91154" lon="2.43768">
        <ele>36.1</ele>
        <time>2019-10-17T07:31:06Z</time>
      </trkpt>
      <trkpt lat="49.91164" lon="2.43768">
        <ele>36</ele>
        <time>2019-10-17T07:31:14Z</time>
      </trkpt>
      <trkpt lat="49.91174" lon="2.43766">
        <ele>36.3</ele>
        <time>2019-10-17T07:31:22Z</time>
      </trkpt>
      <trkpt lat="49.91184" lon="2.43765">
        <ele>35.9</ele>
        <time>2019-10-17T07:31:30Z</time>
      </trkpt>
      <trkpt lat="49.91193" lon="2.43763">
        <ele>36.5</ele>
        <time>2019-10-17T07:31:37Z</time>
      </trkpt>
      <trkpt lat="49.91202" lon="2.43763">
        <ele>36.5</ele>
        <time>2019-10-17T07:31:44Z</time>
      </trkpt>
      <trkpt lat="49.91211" lon="2.43762">
        <ele>35.9</ele>
        <time>2019-10-17T07:31:54Z</time>
      </trkpt>
      <trkpt lat="49.91221" lon="2.43765">
        <ele>36.2</ele>
        <time>2019-10-17T07:32:04Z</time>
      </trkpt>
      <trkpt lat="49.91231" lon="2.43767">
        <ele>36.5</ele>
        <time>2019-10-17T07:32:12Z</time>
      </trkpt>
      <trkpt lat="49.9124" lon="2.43767">
        <ele>36.2</ele>
        <time>2019-10-17T07:32:21Z</time>
      </trkpt>
      <trkpt lat="49.9125" lon="2.43766">
        <ele>36.4</ele>
        <time>2019-10-17T07:32:28Z</time>
      </trkpt>
      <trkpt lat="49.91259" lon="2.43768">
        <ele>36.5</ele>
        <time>2019-10-17T07:32:34Z</time>
      </trkpt>
      <trkpt lat="49.91268" lon="2.43767">
        <ele>36.1</ele>
        <time>2019-10-17T07:32:43Z</time>
      </trkpt>
      <trkpt lat="49.91278" lon="2.43765">
        <ele>36.5</ele>
        <time>2019-10-17T07:32:48Z</time>
      </trkpt>
      <trkpt lat="49.91288" lon="2.43765">
        <ele>36.8</ele>
        <time>2019-10-17T07:32:55Z</time>
      </trkpt>
      <trkpt lat="49.91297" lon="2.43764">
        <ele>36.8</ele>
        <time>2019-10-17T07:33:03Z</time>
      </trkpt>
      <trkpt lat="49.91306" lon="2.43764">
        <ele>36.3</ele>
        <time>2019-10-17T07:33:09Z</time>
      </trkpt>
      <trkpt lat="49.91316" lon="2.43764">
        <ele>36.7</ele>
        <time>2019-10-17T07:33:15Z</time>
      </trkpt>
      <trkpt lat="49.91325" lon="2.43763">
        <ele>36.4</ele>
        <time>2019-10-17T07:33:24Z</time>
      </trkpt>
      <trkpt lat="49.91335" lon="2.43761">
        <ele>36.5</ele>
        <time>2019-10-17T07:33:30Z</time>
      </trkpt>
      <trkpt lat="49.91344" lon="2.43761">
        <ele>36.1</ele>
        <time>2019-10-17T07:33:36Z</time>
      </trkpt>
      <trkpt lat="49.91354" lon="2.43759">
        <ele>36</ele>
        <time>2019-10-17T07:33:43Z</time>
      </trkpt>
      <trkpt lat="49.91364" lon="2.43756">
        <ele>35.7</ele>
        <time>2019-10-17T07:33:56Z</time>
      </trkpt>
      <trkpt lat="49.91373" lon="2.43759">
        <ele>36.5</ele>
        <time>2019-10-17T07:34:05Z</time>
      </trkpt>
      <trkpt lat="49.91383" lon="2.4376">
        <ele>36</ele>
        <time>2019-10-17T07:34:12Z</time>
      </trkpt>
      <trkpt lat="49.91392" lon="2.4376">
        <ele>36.1</ele>
        <time>2019-10-17T07:34:17Z</time>
      </trkpt>
      <trkpt lat="49.91402" lon="2.4376">
        <ele>36.7</ele>
        <time>2019-10-17T07:34:26Z</time>
      </trkpt>
      <trkpt lat="49.91411" lon="2.43757">
        <ele>36.4</ele>
        <time>2019-10-17T07:34:35Z</time>
      </trkpt>
      <trkpt lat="49.91421" lon="2.43753">
        <ele>35.6</ele>
        <time>2019-10-17T07:34:45Z</time>
      </trkpt>
      <trkpt lat="49.9143" lon="2.43749">
        <ele>35.6</ele>
        <time>2019-10-17T07:34:51Z</time>
      </trkpt>
      <trkpt lat="49.9144" lon="2.43747">
        <ele>36.1</ele>
        <time>2019-10-17T07:35:00Z</time>
      </trkpt>
      <trkpt lat="49.91449" lon="2.43745">
        <ele>35.9</ele>
        <time>2019-10-17T07:35:07Z</time>
      </trkpt>
      <trkpt lat="49.91458" lon="2.43737">
        <ele>36.2</ele>
        <time>2019-10-17T07:35:18Z</time>
      </trkpt>
      <trkpt lat="49.91466" lon="2.43732">
        <ele>36.2</ele>
        <time>2019-10-17T07:35:31Z</time>
      </trkpt>
      <trkpt lat="49.91474" lon="2.43726">
        <ele>35.9</ele>
        <time>2019-10-17T07:35:41Z</time>
      </trkpt>
      <trkpt lat="49.91482" lon="2.43719">
        <ele>35.3</ele>
        <time>2019-10-17T07:35:52Z</time>
      </trkpt>
      <trkpt lat="49.91491" lon="2.43714">
        <ele>35.8</ele>
        <time>2019-10-17T07:36:00Z</time>
      </trkpt>
      <trkpt lat="49.91501" lon="2.43707">
        <ele>36.4</ele>
        <time>2019-10-17T07:36:06Z</time>
      </trkpt>
      <trkpt lat="49.91511" lon="2.43706">
        <ele>36.4</ele>
        <time>2019-10-17T07:36:14Z</time>
      </trkpt>
      <trkpt lat="49.9152" lon="2.43701">
        <ele>35.5</ele>
        <time>2019-10-17T07:36:23Z</time>
      </trkpt>
      <trkpt lat="49.91529" lon="2.43694">
        <ele>35.4</ele>
        <time>2019-10-17T07:36:30Z</time>
      </trkpt>
      <trkpt lat="49.91538" lon="2.4369">
        <ele>35.1</ele>
        <time>2019-10-17T07:36:36Z</time>
      </trkpt>
      <trkpt lat="49.91548" lon="2.43686">
        <ele>35.2</ele>
        <time>2019-10-17T07:36:43Z</time>
      </trkpt>
      <trkpt lat="49.91556" lon="2.43678">
        <ele>34.6</ele>
        <time>2019-10-17T07:36:50Z</time>
      </trkpt>
      <trkpt lat="49.91564" lon="2.4367">
        <ele>35.6</ele>
        <time>2019-10-17T07:36:57Z</time>
      </trkpt>
      <trkpt lat="49.91573" lon="2.43663">
        <ele>35.9</ele>
        <time>2019-10-17T07:37:03Z</time>
      </trkpt>
      <trkpt lat="49.91581" lon="2.43656">
        <ele>35.9</ele>
        <time>2019-10-17T07:37:10Z</time>
      </trkpt>
      <trkpt lat="49.9159" lon="2.43649">
        <ele>35.7</ele>
        <time>2019-10-17T07:37:17Z</time>
      </trkpt>
      <trkpt lat="49.91599" lon="2.43643">
        <ele>35.7</ele>
        <time>2019-10-17T07:37:24Z</time>
      </trkpt>
      <trkpt lat="49.91607" lon="2.43638">
        <ele>35.4</ele>
        <time>2019-10-17T07:37:30Z</time>
      </trkpt>
      <trkpt lat="49.91616" lon="2.43633">
        <ele>34.9</ele>
        <time>2019-10-17T07:37:36Z</time>
      </trkpt>
      <trkpt lat="49.91624" lon="2.43626">
        <ele>35.1</ele>
        <time>2019-10-17T07:37:44Z</time>
      </trkpt>
      <trkpt lat="49.91633" lon="2.43619">
        <ele>35.1</ele>
        <time>2019-10-17T07:37:52Z</time>
      </trkpt>
      <trkpt lat="49.91642" lon="2.43612">
        <ele>35.9</ele>
        <time>2019-10-17T07:38:00Z</time>
      </trkpt>
      <trkpt lat="49.91651" lon="2.43607">
        <ele>35.5</ele>
        <time>2019-10-17T07:38:07Z</time>
      </trkpt>
      <trkpt lat="49.9166" lon="2.43602">
        <ele>35.6</ele>
        <time>2019-10-17T07:38:13Z</time>
      </trkpt>
      <trkpt lat="49.91669" lon="2.43596">
        <ele>35.4</ele>
        <time>2019-10-17T07:38:20Z</time>
      </trkpt>
      <trkpt lat="49.91677" lon="2.43589">
        <ele>34.7</ele>
        <time>2019-10-17T07:38:27Z</time>
      </trkpt>
      <trkpt lat="49.91685" lon="2.43582">
        <ele>34.8</ele>
        <time>2019-10-17T07:38:36Z</time>
      </trkpt>
      <trkpt lat="49.91693" lon="2.43574">
        <ele>35.3</ele>
        <time>2019-10-17T07:38:44Z</time>
      </trkpt>
      <trkpt lat="49.91701" lon="2.43568">
        <ele>36</ele>
        <time>2019-10-17T07:38:51Z</time>
      </trkpt>
      <trkpt lat="49.91711" lon="2.43562">
        <ele>36.1</ele>
        <time>2019-10-17T07:38:58Z</time>
      </trkpt>
      <trkpt lat="49.91719" lon="2.43555">
        <ele>36.6</ele>
        <time>2019-10-17T07:39:03Z</time>
      </trkpt>
      <trkpt lat="49.91727" lon="2.43547">
        <ele>36.7</ele>
        <time>2019-10-17T07:39:09Z</time>
      </trkpt>
      <trkpt lat="49.91734" lon="2.43537">
        <ele>36.6</ele>
        <time>2019-10-17T07:39:16Z</time>
      </trkpt>
      <trkpt lat="49.91741" lon="2.43529">
        <ele>36.6</ele>
        <time>2019-10-17T07:39:24Z</time>
      </trkpt>
      <trkpt lat="49.91748" lon="2.43518">
        <ele>36.5</ele>
        <time>2019-10-17T07:39:31Z</time>
      </trkpt>
      <trkpt lat="49.91754" lon="2.43508">
        <ele>36.7</ele>
        <time>2019-10-17T07:39:38Z</time>
      </trkpt>
      <trkpt lat="49.91763" lon="2.43499">
        <ele>36.6</ele>
        <time>2019-10-17T07:39:46Z</time>
      </trkpt>
      <trkpt lat="49.9177" lon="2.43489">
        <ele>36.6</ele>
        <time>2019-10-17T07:39:53Z</time>
      </trkpt>
      <trkpt lat="49.91778" lon="2.43482">
        <ele>36.3</ele>
        <time>2019-10-17T07:40:01Z</time>
      </trkpt>
      <trkpt lat="49.91785" lon="2.4347">
        <ele>36.1</ele>
        <time>2019-10-17T07:40:10Z</time>
      </trkpt>
      <trkpt lat="49.91794" lon="2.43461">
        <ele>35.9</ele>
        <time>2019-10-17T07:40:17Z</time>
      </trkpt>
      <trkpt lat="49.91802" lon="2.43453">
        <ele>36</ele>
        <time>2019-10-17T07:40:24Z</time>
      </trkpt>
      <trkpt lat="49.91808" lon="2.43441">
        <ele>36</ele>
        <time>2019-10-17T07:40:34Z</time>
      </trkpt>
      <trkpt lat="49.91815" lon="2.43429">
        <ele>36.2</ele>
        <time>2019-10-17T07:40:43Z</time>
      </trkpt>
      <trkpt lat="49.91824" lon="2.4342">
        <ele>36.6</ele>
        <time>2019-10-17T07:40:49Z</time>
      </trkpt>
      <trkpt lat="49.91832" lon="2.43413">
        <ele>36.3</ele>
        <time>2019-10-17T07:40:54Z</time>
      </trkpt>
      <trkpt lat="49.9184" lon="2.43403">
        <ele>36.1</ele>
        <time>2019-10-17T07:41:02Z</time>
      </trkpt>
      <trkpt lat="49.91847" lon="2.43391">
        <ele>36.3</ele>
        <time>2019-10-17T07:41:10Z</time>
      </trkpt>
      <trkpt lat="49.91853" lon="2.4338">
        <ele>36.5</ele>
        <time>2019-10-17T07:41:19Z</time>
      </trkpt>
      <trkpt lat="49.91862" lon="2.43372">
        <ele>36.4</ele>
        <time>2019-10-17T07:41:27Z</time>
      </trkpt>
      <trkpt lat="49.91869" lon="2.43362">
        <ele>36.3</ele>
        <time>2019-10-17T07:41:34Z</time>
      </trkpt>
      <trkpt lat="49.91877" lon="2.43353">
        <ele>36.5</ele>
        <time>2019-10-17T07:41:43Z</time>
      </trkpt>
      <trkpt lat="49.91885" lon="2.43342">
        <ele>36.9</ele>
        <time>2019-10-17T07:41:52Z</time>
      </trkpt>
      <trkpt lat="49.91891" lon="2.43331">
        <ele>36.8</ele>
        <time>2019-10-17T07:42:01Z</time>
      </trkpt>
      <trkpt lat="49.91896" lon="2.43319">
        <ele>36.7</ele>
        <time>2019-10-17T07:42:10Z</time>
      </trkpt>
      <trkpt lat="49.91905" lon="2.43312">
        <ele>36</ele>
        <time>2019-10-17T07:42:17Z</time>
      </trkpt>
      <trkpt lat="49.91913" lon="2.43303">
        <ele>36.3</ele>
        <time>2019-10-17T07:42:24Z</time>
      </trkpt>
      <trkpt lat="49.91921" lon="2.43296">
        <ele>37</ele>
        <time>2019-10-17T07:42:31Z</time>
      </trkpt>
      <trkpt lat="49.91929" lon="2.43289">
        <ele>36.8</ele>
        <time>2019-10-17T07:42:38Z</time>
      </trkpt>
      <trkpt lat="49.91938" lon="2.43281">
        <ele>36.8</ele>
        <time>2019-10-17T07:42:47Z</time>
      </trkpt>
      <trkpt lat="49.91947" lon="2.43274">
        <ele>36.9</ele>
        <time>2019-10-17T07:42:55Z</time>
      </trkpt>
      <trkpt lat="49.91957" lon="2.43268">
        <ele>36.5</ele>
        <time>2019-10-17T07:43:03Z</time>
      </trkpt>
      <trkpt lat="49.91966" lon="2.4326">
        <ele>36.6</ele>
        <time>2019-10-17T07:43:10Z</time>
      </trkpt>
      <trkpt lat="49.91975" lon="2.43258">
        <ele>37</ele>
        <time>2019-10-17T07:43:20Z</time>
      </trkpt>
      <trkpt lat="49.91984" lon="2.43256">
        <ele>37</ele>
        <time>2019-10-17T07:43:27Z</time>
      </trkpt>
      <trkpt lat="49.91994" lon="2.43253">
        <ele>36.7</ele>
        <time>2019-10-17T07:43:33Z</time>
      </trkpt>
      <trkpt lat="49.92003" lon="2.43248">
        <ele>36.1</ele>
        <time>2019-10-17T07:43:40Z</time>
      </trkpt>
      <trkpt lat="49.92013" lon="2.43246">
        <ele>36.9</ele>
        <time>2019-10-17T07:43:45Z</time>
      </trkpt>
      <trkpt lat="49.92024" lon="2.43245">
        <ele>36.8</ele>
        <time>2019-10-17T07:43:51Z</time>
      </trkpt>
      <trkpt lat="49.92033" lon="2.43246">
        <ele>36.8</ele>
        <time>2019-10-17T07:43:59Z</time>
      </trkpt>
      <trkpt lat="49.92042" lon="2.43248">
        <ele>36.9</ele>
        <time>2019-10-17T07:44:05Z</time>
      </trkpt>
      <trkpt lat="49.92051" lon="2.43251">
        <ele>36.2</ele>
        <time>2019-10-17T07:44:13Z</time>
      </trkpt>
      <trkpt lat="49.92061" lon="2.43254">
        <ele>36.6</ele>
        <time>2019-10-17T07:44:20Z</time>
      </trkpt>
      <trkpt lat="49.9207" lon="2.43258">
        <ele>37.4</ele>
        <time>2019-10-17T07:44:30Z</time>
      </trkpt>
      <trkpt lat="49.9208" lon="2.43262">
        <ele>37</ele>
        <time>2019-10-17T07:44:37Z</time>
      </trkpt>
      <trkpt lat="49.9209" lon="2.43267">
        <ele>36.8</ele>
        <time>2019-10-17T07:44:46Z</time>
      </trkpt>
      <trkpt lat="49.92099" lon="2.43271">
        <ele>36.5</ele>
        <time>2019-10-17T07:44:54Z</time>
      </trkpt>
      <trkpt lat="49.92108" lon="2.43276">
        <ele>36.9</ele>
        <time>2019-10-17T07:45:03Z</time>
      </trkpt>
      <trkpt lat="49.92117" lon="2.43281">
        <ele>37.1</ele>
        <time>2019-10-17T07:45:10Z</time>
      </trkpt>
      <trkpt lat="49.92127" lon="2.43285">
        <ele>37</ele>
        <time>2019-10-17T07:45:17Z</time>
      </trkpt>
      <trkpt lat="49.92135" lon="2.43292">
        <ele>36.7</ele>
        <time>2019-10-17T07:45:24Z</time>
      </trkpt>
      <trkpt lat="49.92143" lon="2.43299">
        <ele>37.1</ele>
        <time>2019-10-17T07:45:30Z</time>
      </trkpt>
      <trkpt lat="49.92151" lon="2.43305">
        <ele>36.6</ele>
        <time>2019-10-17T07:45:38Z</time>
      </trkpt>
      <trkpt lat="49.9216" lon="2.4331">
        <ele>36.6</ele>
        <time>2019-10-17T07:45:45Z</time>
      </trkpt>
      <trkpt lat="49.92167" lon="2.43319">
        <ele>37.1</ele>
        <time>2019-10-17T07:45:55Z</time>
      </trkpt>
      <trkpt lat="49.92176" lon="2.43323">
        <ele>36.8</ele>
        <time>2019-10-17T07:46:02Z</time>
      </trkpt>
      <trkpt lat="49.92186" lon="2.43328">
        <ele>36.6</ele>
        <time>2019-10-17T07:46:08Z</time>
      </trkpt>
      <trkpt lat="49.92195" lon="2.43331">
        <ele>36.5</ele>
        <time>2019-10-17T07:46:16Z</time>
      </trkpt>
      <trkpt lat="49.92204" lon="2.43334">
        <ele>37.2</ele>
        <time>2019-10-17T07:46:23Z</time>
      </trkpt>
      <trkpt lat="49.92214" lon="2.43336">
        <ele>36.6</ele>
        <time>2019-10-17T07:46:32Z</time>
      </trkpt>
      <trkpt lat="49.92224" lon="2.43335">
        <ele>36</ele>
        <time>2019-10-17T07:46:41Z</time>
      </trkpt>
      <trkpt lat="49.92234" lon="2.43335">
        <ele>36</ele>
        <time>2019-10-17T07:46:49Z</time>
      </trkpt>
      <trkpt lat="49.92245" lon="2.43337">
        <ele>36.2</ele>
        <time>2019-10-17T07:46:55Z</time>
      </trkpt>
      <trkpt lat="49.92254" lon="2.43339">
        <ele>37.2</ele>
        <time>2019-10-17T07:47:06Z</time>
      </trkpt>
      <trkpt lat="49.92264" lon="2.4334">
        <ele>36.5</ele>
        <time>2019-10-17T07:47:14Z</time>
      </trkpt>
      <trkpt lat="49.92274" lon="2.43339">
        <ele>36.1</ele>
        <time>2019-10-17T07:47:21Z</time>
      </trkpt>
      <trkpt lat="49.92283" lon="2.43338">
        <ele>36.6</ele>
        <time>2019-10-17T07:47:28Z</time>
      </trkpt>
      <trkpt lat="49.92293" lon="2.4334">
        <ele>36.8</ele>
        <time>2019-10-17T07:47:39Z</time>
      </trkpt>
      <trkpt lat="49.92303" lon="2.43344">
        <ele>36.7</ele>
        <time>2019-10-17T07:47:45Z</time>
      </trkpt>
      <trkpt lat="49.92312" lon="2.43347">
        <ele>36.3</ele>
        <time>2019-10-17T07:47:50Z</time>
      </trkpt>
      <trkpt lat="49.92322" lon="2.43352">
        <ele>36.2</ele>
        <time>2019-10-17T07:47:57Z</time>
      </trkpt>
      <trkpt lat="49.92332" lon="2.43352">
        <ele>36</ele>
        <time>2019-10-17T07:48:02Z</time>
      </trkpt>
      <trkpt lat="49.92341" lon="2.43355">
        <ele>35.7</ele>
        <time>2019-10-17T07:48:10Z</time>
      </trkpt>
      <trkpt lat="49.92351" lon="2.4336">
        <ele>35.9</ele>
        <time>2019-10-17T07:48:16Z</time>
      </trkpt>
      <trkpt lat="49.92361" lon="2.4336">
        <ele>36.2</ele>
        <time>2019-10-17T07:48:24Z</time>
      </trkpt>
      <trkpt lat="49.92371" lon="2.4336">
        <ele>35.9</ele>
        <time>2019-10-17T07:48:35Z</time>
      </trkpt>
      <trkpt lat="49.92381" lon="2.43365">
        <ele>36.1</ele>
        <time>2019-10-17T07:48:42Z</time>
      </trkpt>
      <trkpt lat="49.9239" lon="2.43368">
        <ele>37.2</ele>
        <time>2019-10-17T07:48:49Z</time>
      </trkpt>
      <trkpt lat="49.924" lon="2.43371">
        <ele>36.8</ele>
        <time>2019-10-17T07:48:57Z</time>
      </trkpt>
      <trkpt lat="49.9241" lon="2.43375">
        <ele>36.3</ele>
        <time>2019-10-17T07:49:06Z</time>
      </trkpt>
      <trkpt lat="49.92418" lon="2.43383">
        <ele>36.3</ele>
        <time>2019-10-17T07:49:14Z</time>
      </trkpt>
      <trkpt lat="49.92427" lon="2.43389">
        <ele>36</ele>
        <time>2019-10-17T07:49:20Z</time>
      </trkpt>
      <trkpt lat="49.92436" lon="2.43394">
        <ele>36</ele>
        <time>2019-10-17T07:49:27Z</time>
      </trkpt>
      <trkpt lat="49.92445" lon="2.43399">
        <ele>36.2</ele>
        <time>2019-10-17T07:49:34Z</time>
      </trkpt>
      <trkpt lat="49.92454" lon="2.43402">
        <ele>36.5</ele>
        <time>2019-10-17T07:49:40Z</time>
      </trkpt>
      <trkpt lat="49.92463" lon="2.43406">
        <ele>36.5</ele>
        <time>2019-10-17T07:49:47Z</time>
      </trkpt>
      <trkpt lat="49.92472" lon="2.43411">
        <ele>36.3</ele>
        <time>2019-10-17T07:49:55Z</time>
      </trkpt>
      <trkpt lat="49.92481" lon="2.43416">
        <ele>36.2</ele>
        <time>2019-10-17T07:50:03Z</time>
      </trkpt>
      <trkpt lat="49.92489" lon="2.43423">
        <ele>36.2</ele>
        <time>2019-10-17T07:50:10Z</time>
      </trkpt>
      <trkpt lat="49.92498" lon="2.43428">
        <ele>36.1</ele>
        <time>2019-10-17T07:50:17Z</time>
      </trkpt>
      <trkpt lat="49.92507" lon="2.43432">
        <ele>36.3</ele>
        <time>2019-10-17T07:50:25Z</time>
      </trkpt>
      <trkpt lat="49.92517" lon="2.43437">
        <ele>35.9</ele>
        <time>2019-10-17T07:50:34Z</time>
      </trkpt>
      <trkpt lat="49.92526" lon="2.43441">
        <ele>35.8</ele>
        <time>2019-10-17T07:50:40Z</time>
      </trkpt>
      <trkpt lat="49.92536" lon="2.43447">
        <ele>35.5</ele>
        <time>2019-10-17T07:50:48Z</time>
      </trkpt>
      <trkpt lat="49.92544" lon="2.43452">
        <ele>35.5</ele>
        <time>2019-10-17T07:50:54Z</time>
      </trkpt>
      <trkpt lat="49.92554" lon="2.43459">
        <ele>35.6</ele>
        <time>2019-10-17T07:51:02Z</time>
      </trkpt>
      <trkpt lat="49.92562" lon="2.43464">
        <ele>36.2</ele>
        <time>2019-10-17T07:51:10Z</time>
      </trkpt>
      <trkpt lat="49.92572" lon="2.4347">
        <ele>36.1</ele>
        <time>2019-10-17T07:51:17Z</time>
      </trkpt>
      <trkpt lat="49.92581" lon="2.43475">
        <ele>35.8</ele>
        <time>2019-10-17T07:51:24Z</time>
      </trkpt>
      <trkpt lat="49.92591" lon="2.4348">
        <ele>36</ele>
        <time>2019-10-17T07:51:32Z</time>
      </trkpt>
      <trkpt lat="49.926" lon="2.43483">
        <ele>36.1</ele>
        <time>2019-10-17T07:51:39Z</time>
      </trkpt>
      <trkpt lat="49.92609" lon="2.43489">
        <ele>36.1</ele>
        <time>2019-10-17T07:51:46Z</time>
      </trkpt>
      <trkpt lat="49.92617" lon="2.43496">
        <ele>36.1</ele>
        <time>2019-10-17T07:51:53Z</time>
      </trkpt>
      <trkpt lat="49.92627" lon="2.435">
        <ele>36.4</ele>
        <time>2019-10-17T07:52:01Z</time>
      </trkpt>
      <trkpt lat="49.92637" lon="2.43506">
        <ele>36.7</ele>
        <time>2019-10-17T07:52:09Z</time>
      </trkpt>
      <trkpt lat="49.92647" lon="2.4351">
        <ele>36.2</ele>
        <time>2019-10-17T07:52:15Z</time>
      </trkpt>
      <trkpt lat="49.92656" lon="2.43515">
        <ele>35.6</ele>
        <time>2019-10-17T07:52:22Z</time>
      </trkpt>
      <trkpt lat="49.92665" lon="2.4352">
        <ele>36.6</ele>
        <time>2019-10-17T07:52:29Z</time>
      </trkpt>
      <trkpt lat="49.92673" lon="2.43528">
        <ele>35.9</ele>
        <time>2019-10-17T07:52:38Z</time>
      </trkpt>
      <trkpt lat="49.92683" lon="2.43535">
        <ele>35.9</ele>
        <time>2019-10-17T07:52:46Z</time>
      </trkpt>
      <trkpt lat="49.92692" lon="2.43542">
        <ele>36.2</ele>
        <time>2019-10-17T07:52:54Z</time>
      </trkpt>
      <trkpt lat="49.92701" lon="2.43544">
        <ele>36.6</ele>
        <time>2019-10-17T07:53:00Z</time>
      </trkpt>
      <trkpt lat="49.92711" lon="2.43551">
        <ele>36.3</ele>
        <time>2019-10-17T07:53:07Z</time>
      </trkpt>
      <trkpt lat="49.9272" lon="2.43555">
        <ele>35.9</ele>
        <time>2019-10-17T07:53:13Z</time>
      </trkpt>
      <trkpt lat="49.92728" lon="2.43562">
        <ele>35.9</ele>
        <time>2019-10-17T07:53:23Z</time>
      </trkpt>
      <trkpt lat="49.9274" lon="2.43568">
        <ele>35.9</ele>
        <time>2019-10-17T07:53:29Z</time>
      </trkpt>
      <trkpt lat="49.92749" lon="2.43573">
        <ele>36</ele>
        <time>2019-10-17T07:53:35Z</time>
      </trkpt>
      <trkpt lat="49.92757" lon="2.43577">
        <ele>36</ele>
        <time>2019-10-17T07:53:41Z</time>
      </trkpt>
      <trkpt lat="49.92766" lon="2.43582">
        <ele>35.4</ele>
        <time>2019-10-17T07:53:51Z</time>
      </trkpt>
      <trkpt lat="49.92776" lon="2.43586">
        <ele>35.6</ele>
        <time>2019-10-17T07:53:57Z</time>
      </trkpt>
      <trkpt lat="49.92785" lon="2.43591">
        <ele>35.7</ele>
        <time>2019-10-17T07:54:05Z</time>
      </trkpt>
      <trkpt lat="49.92793" lon="2.43598">
        <ele>35.9</ele>
        <time>2019-10-17T07:54:11Z</time>
      </trkpt>
      <trkpt lat="49.92802" lon="2.43603">
        <ele>36.4</ele>
        <time>2019-10-17T07:54:18Z</time>
      </trkpt>
      <trkpt lat="49.9281" lon="2.43611">
        <ele>36.2</ele>
        <time>2019-10-17T07:54:26Z</time>
      </trkpt>
      <trkpt lat="49.92819" lon="2.43615">
        <ele>35.8</ele>
        <time>2019-10-17T07:54:32Z</time>
      </trkpt>
      <trkpt lat="49.92829" lon="2.43616">
        <ele>35.9</ele>
        <time>2019-10-17T07:54:38Z</time>
      </trkpt>
      <trkpt lat="49.92838" lon="2.43621">
        <ele>35.6</ele>
        <time>2019-10-17T07:54:47Z</time>
      </trkpt>
      <trkpt lat="49.92848" lon="2.43626">
        <ele>35.6</ele>
        <time>2019-10-17T07:54:54Z</time>
      </trkpt>
      <trkpt lat="49.92857" lon="2.43631">
        <ele>35.3</ele>
        <time>2019-10-17T07:55:03Z</time>
      </trkpt>
      <trkpt lat="49.92866" lon="2.43637">
        <ele>36</ele>
        <time>2019-10-17T07:55:10Z</time>
      </trkpt>
      <trkpt lat="49.92875" lon="2.43641">
        <ele>36.5</ele>
        <time>2019-10-17T07:55:17Z</time>
      </trkpt>
      <trkpt lat="49.92884" lon="2.43647">
        <ele>36.4</ele>
        <time>2019-10-17T07:55:24Z</time>
      </trkpt>
      <trkpt lat="49.92894" lon="2.43653">
        <ele>36.3</ele>
        <time>2019-10-17T07:55:31Z</time>
      </trkpt>
      <trkpt lat="49.92901" lon="2.43661">
        <ele>36</ele>
        <time>2019-10-17T07:55:37Z</time>
      </trkpt>
      <trkpt lat="49.9291" lon="2.43667">
        <ele>35.2</ele>
        <time>2019-10-17T07:55:45Z</time>
      </trkpt>
      <trkpt lat="49.92919" lon="2.43669">
        <ele>35.9</ele>
        <time>2019-10-17T07:55:54Z</time>
      </trkpt>
      <trkpt lat="49.92928" lon="2.43674">
        <ele>36.2</ele>
        <time>2019-10-17T07:55:59Z</time>
      </trkpt>
      <trkpt lat="49.92937" lon="2.43679">
        <ele>35.9</ele>
        <time>2019-10-17T07:56:06Z</time>
      </trkpt>
      <trkpt lat="49.92946" lon="2.43684">
        <ele>36.4</ele>
        <time>2019-10-17T07:56:16Z</time>
      </trkpt>
      <trkpt lat="49.92955" lon="2.43688">
        <ele>36</ele>
        <time>2019-10-17T07:56:36Z</time>
      </trkpt>
      <trkpt lat="49.92963" lon="2.43696">
        <ele>36.4</ele>
        <time>2019-10-17T08:00:07Z</time>
      </trkpt>
      <trkpt lat="49.92972" lon="2.43699">
        <ele>36.2</ele>
        <time>2019-10-17T08:00:16Z</time>
      </trkpt>
      <trkpt lat="49.92981" lon="2.43705">
        <ele>36.1</ele>
        <time>2019-10-17T08:00:25Z</time>
      </trkpt>
      <trkpt lat="49.9299" lon="2.43709">
        <ele>35.3</ele>
        <time>2019-10-17T08:00:35Z</time>
      </trkpt>
      <trkpt lat="49.92999" lon="2.43714">
        <ele>36.6</ele>
        <time>2019-10-17T08:00:43Z</time>
      </trkpt>
      <trkpt lat="49.93008" lon="2.43717">
        <ele>36.7</ele>
        <time>2019-10-17T08:00:49Z</time>
      </trkpt>
      <trkpt lat="49.93017" lon="2.43723">
        <ele>37</ele>
        <time>2019-10-17T08:00:56Z</time>
      </trkpt>
      <trkpt lat="49.93026" lon="2.43727">
        <ele>37.2</ele>
        <time>2019-10-17T08:01:01Z</time>
      </trkpt>
      <trkpt lat="49.93033" lon="2.43737">
        <ele>36.7</ele>
        <time>2019-10-17T08:01:08Z</time>
      </trkpt>
      <trkpt lat="49.93043" lon="2.43742">
        <ele>36.9</ele>
        <time>2019-10-17T08:01:14Z</time>
      </trkpt>
      <trkpt lat="49.93051" lon="2.43749">
        <ele>36.4</ele>
        <time>2019-10-17T08:01:22Z</time>
      </trkpt>
      <trkpt lat="49.9306" lon="2.43752">
        <ele>36.5</ele>
        <time>2019-10-17T08:01:31Z</time>
      </trkpt>
      <trkpt lat="49.93069" lon="2.43757">
        <ele>36.9</ele>
        <time>2019-10-17T08:01:38Z</time>
      </trkpt>
      <trkpt lat="49.93078" lon="2.43761">
        <ele>37</ele>
        <time>2019-10-17T08:01:44Z</time>
      </trkpt>
      <trkpt lat="49.93087" lon="2.43767">
        <ele>37.1</ele>
        <time>2019-10-17T08:01:50Z</time>
      </trkpt>
      <trkpt lat="49.93096" lon="2.43772">
        <ele>37.1</ele>
        <time>2019-10-17T08:01:58Z</time>
      </trkpt>
      <trkpt lat="49.93105" lon="2.43775">
        <ele>37.1</ele>
        <time>2019-10-17T08:02:06Z</time>
      </trkpt>
      <trkpt lat="49.93115" lon="2.43782">
        <ele>37.1</ele>
        <time>2019-10-17T08:02:14Z</time>
      </trkpt>
      <trkpt lat="49.93124" lon="2.43786">
        <ele>36.7</ele>
        <time>2019-10-17T08:02:21Z</time>
      </trkpt>
      <trkpt lat="49.93133" lon="2.43789">
        <ele>37.2</ele>
        <time>2019-10-17T08:02:28Z</time>
      </trkpt>
      <trkpt lat="49.93142" lon="2.43795">
        <ele>37.1</ele>
        <time>2019-10-17T08:02:37Z</time>
      </trkpt>
      <trkpt lat="49.93152" lon="2.43799">
        <ele>37.1</ele>
        <time>2019-10-17T08:02:43Z</time>
      </trkpt>
      <trkpt lat="49.93161" lon="2.43803">
        <ele>37</ele>
        <time>2019-10-17T08:02:49Z</time>
      </trkpt>
      <trkpt lat="49.93171" lon="2.43804">
        <ele>37.5</ele>
        <time>2019-10-17T08:02:56Z</time>
      </trkpt>
      <trkpt lat="49.93181" lon="2.43804">
        <ele>37.5</ele>
        <time>2019-10-17T08:03:02Z</time>
      </trkpt>
      <trkpt lat="49.93191" lon="2.43804">
        <ele>37.6</ele>
        <time>2019-10-17T08:03:09Z</time>
      </trkpt>
      <trkpt lat="49.93202" lon="2.43802">
        <ele>37.5</ele>
        <time>2019-10-17T08:03:16Z</time>
      </trkpt>
      <trkpt lat="49.93211" lon="2.43802">
        <ele>37.7</ele>
        <time>2019-10-17T08:03:23Z</time>
      </trkpt>
      <trkpt lat="49.93221" lon="2.438">
        <ele>37.8</ele>
        <time>2019-10-17T08:03:30Z</time>
      </trkpt>
      <trkpt lat="49.93231" lon="2.438">
        <ele>36.9</ele>
        <time>2019-10-17T08:03:40Z</time>
      </trkpt>
      <trkpt lat="49.9324" lon="2.43799">
        <ele>36.5</ele>
        <time>2019-10-17T08:03:47Z</time>
      </trkpt>
      <trkpt lat="49.9325" lon="2.43798">
        <ele>37.1</ele>
        <time>2019-10-17T08:03:55Z</time>
      </trkpt>
      <trkpt lat="49.93259" lon="2.43795">
        <ele>37.1</ele>
        <time>2019-10-17T08:04:03Z</time>
      </trkpt>
      <trkpt lat="49.93268" lon="2.43795">
        <ele>37.4</ele>
        <time>2019-10-17T08:04:10Z</time>
      </trkpt>
      <trkpt lat="49.93278" lon="2.43794">
        <ele>37.5</ele>
        <time>2019-10-17T08:04:17Z</time>
      </trkpt>
      <trkpt lat="49.93287" lon="2.43794">
        <ele>37.4</ele>
        <time>2019-10-17T08:04:23Z</time>
      </trkpt>
      <trkpt lat="49.93296" lon="2.43796">
        <ele>37.6</ele>
        <time>2019-10-17T08:04:29Z</time>
      </trkpt>
      <trkpt lat="49.93306" lon="2.43796">
        <ele>37.5</ele>
        <time>2019-10-17T08:04:37Z</time>
      </trkpt>
      <trkpt lat="49.93315" lon="2.43794">
        <ele>36.4</ele>
        <time>2019-10-17T08:04:44Z</time>
      </trkpt>
      <trkpt lat="49.93324" lon="2.43792">
        <ele>36.9</ele>
        <time>2019-10-17T08:04:52Z</time>
      </trkpt>
      <trkpt lat="49.93334" lon="2.43789">
        <ele>37.1</ele>
        <time>2019-10-17T08:05:01Z</time>
      </trkpt>
      <trkpt lat="49.93344" lon="2.43788">
        <ele>37.6</ele>
        <time>2019-10-17T08:05:08Z</time>
      </trkpt>
      <trkpt lat="49.93354" lon="2.43789">
        <ele>37.6</ele>
        <time>2019-10-17T08:05:14Z</time>
      </trkpt>
      <trkpt lat="49.93364" lon="2.43791">
        <ele>37.6</ele>
        <time>2019-10-17T08:05:20Z</time>
      </trkpt>
      <trkpt lat="49.93374" lon="2.43791">
        <ele>37.4</ele>
        <time>2019-10-17T08:05:27Z</time>
      </trkpt>
      <trkpt lat="49.93383" lon="2.4379">
        <ele>37.5</ele>
        <time>2019-10-17T08:05:33Z</time>
      </trkpt>
      <trkpt lat="49.93393" lon="2.43791">
        <ele>37.3</ele>
        <time>2019-10-17T08:05:42Z</time>
      </trkpt>
      <trkpt lat="49.93402" lon="2.43791">
        <ele>37.9</ele>
        <time>2019-10-17T08:05:50Z</time>
      </trkpt>
      <trkpt lat="49.93411" lon="2.43797">
        <ele>37.7</ele>
        <time>2019-10-17T08:05:56Z</time>
      </trkpt>
      <trkpt lat="49.93419" lon="2.43807">
        <ele>37.7</ele>
        <time>2019-10-17T08:06:03Z</time>
      </trkpt>
      <trkpt lat="49.93426" lon="2.43815">
        <ele>37.3</ele>
        <time>2019-10-17T08:06:12Z</time>
      </trkpt>
      <trkpt lat="49.93434" lon="2.43827">
        <ele>37.8</ele>
        <time>2019-10-17T08:06:20Z</time>
      </trkpt>
      <trkpt lat="49.9344" lon="2.43837">
        <ele>37.9</ele>
        <time>2019-10-17T08:06:26Z</time>
      </trkpt>
      <trkpt lat="49.93446" lon="2.43847">
        <ele>37.7</ele>
        <time>2019-10-17T08:06:33Z</time>
      </trkpt>
      <trkpt lat="49.93454" lon="2.43855">
        <ele>38.5</ele>
        <time>2019-10-17T08:06:41Z</time>
      </trkpt>
      <trkpt lat="49.93464" lon="2.43856">
        <ele>38.7</ele>
        <time>2019-10-17T08:06:49Z</time>
      </trkpt>
      <trkpt lat="49.93473" lon="2.43857">
        <ele>38.6</ele>
        <time>2019-10-17T08:06:56Z</time>
      </trkpt>
      <trkpt lat="49.93483" lon="2.43857">
        <ele>38.1</ele>
        <time>2019-10-17T08:07:03Z</time>
      </trkpt>
      <trkpt lat="49.93493" lon="2.43857">
        <ele>37.8</ele>
        <time>2019-10-17T08:07:13Z</time>
      </trkpt>
      <trkpt lat="49.93503" lon="2.43854">
        <ele>38</ele>
        <time>2019-10-17T08:07:19Z</time>
      </trkpt>
      <trkpt lat="49.93513" lon="2.43855">
        <ele>37.9</ele>
        <time>2019-10-17T08:07:25Z</time>
      </trkpt>
      <trkpt lat="49.9352" lon="2.43846">
        <ele>37.3</ele>
        <time>2019-10-17T08:07:35Z</time>
      </trkpt>
      <trkpt lat="49.93528" lon="2.43837">
        <ele>37.1</ele>
        <time>2019-10-17T08:07:43Z</time>
      </trkpt>
      <trkpt lat="49.93538" lon="2.4383">
        <ele>36.6</ele>
        <time>2019-10-17T08:07:52Z</time>
      </trkpt>
      <trkpt lat="49.93545" lon="2.43822">
        <ele>37.5</ele>
        <time>2019-10-17T08:08:02Z</time>
      </trkpt>
      <trkpt lat="49.93553" lon="2.43814">
        <ele>37.3</ele>
        <time>2019-10-17T08:08:09Z</time>
      </trkpt>
      <trkpt lat="49.9356" lon="2.43804">
        <ele>37</ele>
        <time>2019-10-17T08:08:19Z</time>
      </trkpt>
      <trkpt lat="49.93568" lon="2.43799">
        <ele>36.5</ele>
        <time>2019-10-17T08:08:33Z</time>
      </trkpt>
      <trkpt lat="49.9357" lon="2.43785">
        <ele>36.2</ele>
        <time>2019-10-17T08:08:50Z</time>
      </trkpt>
      <trkpt lat="49.93569" lon="2.43771">
        <ele>35.6</ele>
        <time>2019-10-17T08:09:00Z</time>
      </trkpt>
      <trkpt lat="49.93575" lon="2.43757">
        <ele>37</ele>
        <time>2019-10-17T08:09:11Z</time>
      </trkpt>
      <trkpt lat="49.93582" lon="2.43748">
        <ele>37</ele>
        <time>2019-10-17T08:09:20Z</time>
      </trkpt>
      <trkpt lat="49.9359" lon="2.43741">
        <ele>36.5</ele>
        <time>2019-10-17T08:09:30Z</time>
      </trkpt>
      <trkpt lat="49.93599" lon="2.43735">
        <ele>36.2</ele>
        <time>2019-10-17T08:09:39Z</time>
      </trkpt>
      <trkpt lat="49.93607" lon="2.43725">
        <ele>36.8</ele>
        <time>2019-10-17T08:09:49Z</time>
      </trkpt>
      <trkpt lat="49.93607" lon="2.43708">
        <ele>36.6</ele>
        <time>2019-10-17T08:09:59Z</time>
      </trkpt>
      <trkpt lat="49.9361" lon="2.43695">
        <ele>36.3</ele>
        <time>2019-10-17T08:10:09Z</time>
      </trkpt>
      <trkpt lat="49.93615" lon="2.43681">
        <ele>36.8</ele>
        <time>2019-10-17T08:10:17Z</time>
      </trkpt>
      <trkpt lat="49.93621" lon="2.43668">
        <ele>37.2</ele>
        <time>2019-10-17T08:10:26Z</time>
      </trkpt>
      <trkpt lat="49.93627" lon="2.43656">
        <ele>37</ele>
        <time>2019-10-17T08:10:32Z</time>
      </trkpt>
      <trkpt lat="49.93627" lon="2.43642">
        <ele>37.3</ele>
        <time>2019-10-17T08:10:38Z</time>
      </trkpt>
      <trkpt lat="49.93626" lon="2.43627">
        <ele>36.9</ele>
        <time>2019-10-17T08:10:50Z</time>
      </trkpt>
      <trkpt lat="49.93628" lon="2.43612">
        <ele>37.2</ele>
        <time>2019-10-17T08:10:58Z</time>
      </trkpt>
      <trkpt lat="49.93629" lon="2.43597">
        <ele>38</ele>
        <time>2019-10-17T08:11:06Z</time>
      </trkpt>
      <trkpt lat="49.93625" lon="2.43583">
        <ele>37.9</ele>
        <time>2019-10-17T08:11:13Z</time>
      </trkpt>
      <trkpt lat="49.93615" lon="2.43578">
        <ele>37.3</ele>
        <time>2019-10-17T08:11:21Z</time>
      </trkpt>
      <trkpt lat="49.93607" lon="2.4357">
        <ele>37.3</ele>
        <time>2019-10-17T08:11:28Z</time>
      </trkpt>
      <trkpt lat="49.93598" lon="2.43564">
        <ele>38</ele>
        <time>2019-10-17T08:11:35Z</time>
      </trkpt>
      <trkpt lat="49.9359" lon="2.43558">
        <ele>36.8</ele>
        <time>2019-10-17T08:11:41Z</time>
      </trkpt>
      <trkpt lat="49.93581" lon="2.43554">
        <ele>36.9</ele>
        <time>2019-10-17T08:11:48Z</time>
      </trkpt>
      <trkpt lat="49.93571" lon="2.43548">
        <ele>36.6</ele>
        <time>2019-10-17T08:11:55Z</time>
      </trkpt>
      <trkpt lat="49.93564" lon="2.43538">
        <ele>36.7</ele>
        <time>2019-10-17T08:12:01Z</time>
      </trkpt>
      <trkpt lat="49.93562" lon="2.43523">
        <ele>37.2</ele>
        <time>2019-10-17T08:12:08Z</time>
      </trkpt>
      <trkpt lat="49.93561" lon="2.43509">
        <ele>36.6</ele>
        <time>2019-10-17T08:12:15Z</time>
      </trkpt>
      <trkpt lat="49.9356" lon="2.43495">
        <ele>37.7</ele>
        <time>2019-10-17T08:12:27Z</time>
      </trkpt>
      <trkpt lat="49.93551" lon="2.43487">
        <ele>38.1</ele>
        <time>2019-10-17T08:12:35Z</time>
      </trkpt>
      <trkpt lat="49.93542" lon="2.43477">
        <ele>38.3</ele>
        <time>2019-10-17T08:12:41Z</time>
      </trkpt>
      <trkpt lat="49.93534" lon="2.43468">
        <ele>38.7</ele>
        <time>2019-10-17T08:12:48Z</time>
      </trkpt>
      <trkpt lat="49.93532" lon="2.43454">
        <ele>37.8</ele>
        <time>2019-10-17T08:12:57Z</time>
      </trkpt>
      <trkpt lat="49.93534" lon="2.43439">
        <ele>38.2</ele>
        <time>2019-10-17T08:13:06Z</time>
      </trkpt>
      <trkpt lat="49.93538" lon="2.43426">
        <ele>38.2</ele>
        <time>2019-10-17T08:13:19Z</time>
      </trkpt>
      <trkpt lat="49.93529" lon="2.43424">
        <ele>38.2</ele>
        <time>2019-10-17T08:13:53Z</time>
      </trkpt>
      <trkpt lat="49.93539" lon="2.43428">
        <ele>38.7</ele>
        <time>2019-10-17T08:14:39Z</time>
      </trkpt>
      <trkpt lat="49.9353" lon="2.43423">
        <ele>38.1</ele>
        <time>2019-10-17T08:18:26Z</time>
      </trkpt>
      <trkpt lat="49.93538" lon="2.43428">
        <ele>38.3</ele>
        <time>2019-10-17T08:19:23Z</time>
      </trkpt>
      <trkpt lat="49.9354" lon="2.43414">
        <ele>38.2</ele>
        <time>2019-10-17T08:20:42Z</time>
      </trkpt>
      <trkpt lat="49.93549" lon="2.43423">
        <ele>39.1</ele>
        <time>2019-10-17T08:23:44Z</time>
      </trkpt>
      <trkpt lat="49.93558" lon="2.43418">
        <ele>39.9</ele>
        <time>2019-10-17T08:23:54Z</time>
      </trkpt>
      <trkpt lat="49.93569" lon="2.43415">
        <ele>39.5</ele>
        <time>2019-10-17T08:24:02Z</time>
      </trkpt>
      <trkpt lat="49.93578" lon="2.43415">
        <ele>39.5</ele>
        <time>2019-10-17T08:24:11Z</time>
      </trkpt>
      <trkpt lat="49.93589" lon="2.43411">
        <ele>37.5</ele>
        <time>2019-10-17T08:24:18Z</time>
      </trkpt>
      <trkpt lat="49.93599" lon="2.43406">
        <ele>39.3</ele>
        <time>2019-10-17T08:24:26Z</time>
      </trkpt>
      <trkpt lat="49.93608" lon="2.43404">
        <ele>38.6</ele>
        <time>2019-10-17T08:24:33Z</time>
      </trkpt>
      <trkpt lat="49.93617" lon="2.43404">
        <ele>39.3</ele>
        <time>2019-10-17T08:24:43Z</time>
      </trkpt>
      <trkpt lat="49.93628" lon="2.43402">
        <ele>39.5</ele>
        <time>2019-10-17T08:24:49Z</time>
      </trkpt>
      <trkpt lat="49.93637" lon="2.43402">
        <ele>39.8</ele>
        <time>2019-10-17T08:24:55Z</time>
      </trkpt>
      <trkpt lat="49.93647" lon="2.43399">
        <ele>40.6</ele>
        <time>2019-10-17T08:25:03Z</time>
      </trkpt>
      <trkpt lat="49.93655" lon="2.43394">
        <ele>40.6</ele>
        <time>2019-10-17T08:25:12Z</time>
      </trkpt>
      <trkpt lat="49.93661" lon="2.43382">
        <ele>40.3</ele>
        <time>2019-10-17T08:25:18Z</time>
      </trkpt>
      <trkpt lat="49.93667" lon="2.43372">
        <ele>40.4</ele>
        <time>2019-10-17T08:25:25Z</time>
      </trkpt>
      <trkpt lat="49.93673" lon="2.43359">
        <ele>40</ele>
        <time>2019-10-17T08:25:35Z</time>
      </trkpt>
      <trkpt lat="49.93678" lon="2.43347">
        <ele>41.4</ele>
        <time>2019-10-17T08:25:42Z</time>
      </trkpt>
      <trkpt lat="49.93685" lon="2.43337">
        <ele>42.2</ele>
        <time>2019-10-17T08:25:48Z</time>
      </trkpt>
      <trkpt lat="49.93689" lon="2.43323">
        <ele>41.7</ele>
        <time>2019-10-17T08:25:56Z</time>
      </trkpt>
      <trkpt lat="49.93695" lon="2.43311">
        <ele>42.6</ele>
        <time>2019-10-17T08:26:04Z</time>
      </trkpt>
      <trkpt lat="49.93699" lon="2.43297">
        <ele>42.1</ele>
        <time>2019-10-17T08:26:12Z</time>
      </trkpt>
      <trkpt lat="49.93705" lon="2.43286">
        <ele>43.3</ele>
        <time>2019-10-17T08:26:20Z</time>
      </trkpt>
      <trkpt lat="49.9371" lon="2.43274">
        <ele>42.7</ele>
        <time>2019-10-17T08:26:28Z</time>
      </trkpt>
      <trkpt lat="49.93713" lon="2.4326">
        <ele>44</ele>
        <time>2019-10-17T08:26:37Z</time>
      </trkpt>
      <trkpt lat="49.93718" lon="2.43246">
        <ele>45.1</ele>
        <time>2019-10-17T08:26:46Z</time>
      </trkpt>
      <trkpt lat="49.93724" lon="2.43234">
        <ele>46.2</ele>
        <time>2019-10-17T08:26:54Z</time>
      </trkpt>
      <trkpt lat="49.93729" lon="2.4322">
        <ele>47</ele>
        <time>2019-10-17T08:27:01Z</time>
      </trkpt>
      <trkpt lat="49.93732" lon="2.43206">
        <ele>47.1</ele>
        <time>2019-10-17T08:27:09Z</time>
      </trkpt>
      <trkpt lat="49.93736" lon="2.43192">
        <ele>47.8</ele>
        <time>2019-10-17T08:27:18Z</time>
      </trkpt>
      <trkpt lat="49.93739" lon="2.43177">
        <ele>48.7</ele>
        <time>2019-10-17T08:27:26Z</time>
      </trkpt>
      <trkpt lat="49.93743" lon="2.43163">
        <ele>49.2</ele>
        <time>2019-10-17T08:27:33Z</time>
      </trkpt>
      <trkpt lat="49.93745" lon="2.43149">
        <ele>49.6</ele>
        <time>2019-10-17T08:27:40Z</time>
      </trkpt>
      <trkpt lat="49.93749" lon="2.43136">
        <ele>49.2</ele>
        <time>2019-10-17T08:27:48Z</time>
      </trkpt>
      <trkpt lat="49.93751" lon="2.43121">
        <ele>50.5</ele>
        <time>2019-10-17T08:27:57Z</time>
      </trkpt>
      <trkpt lat="49.93752" lon="2.43106">
        <ele>51.7</ele>
        <time>2019-10-17T08:28:03Z</time>
      </trkpt>
      <trkpt lat="49.93754" lon="2.43091">
        <ele>51.9</ele>
        <time>2019-10-17T08:28:09Z</time>
      </trkpt>
      <trkpt lat="49.93754" lon="2.43076">
        <ele>52.6</ele>
        <time>2019-10-17T08:28:15Z</time>
      </trkpt>
      <trkpt lat="49.93751" lon="2.43063">
        <ele>53</ele>
        <time>2019-10-17T08:28:23Z</time>
      </trkpt>
      <trkpt lat="49.93741" lon="2.4306">
        <ele>53.6</ele>
        <time>2019-10-17T08:28:31Z</time>
      </trkpt>
      <trkpt lat="49.93731" lon="2.43055">
        <ele>54.6</ele>
        <time>2019-10-17T08:28:39Z</time>
      </trkpt>
      <trkpt lat="49.93721" lon="2.43052">
        <ele>55.2</ele>
        <time>2019-10-17T08:28:46Z</time>
      </trkpt>
      <trkpt lat="49.93712" lon="2.4305">
        <ele>55.9</ele>
        <time>2019-10-17T08:28:53Z</time>
      </trkpt>
      <trkpt lat="49.93703" lon="2.43045">
        <ele>56.1</ele>
        <time>2019-10-17T08:29:00Z</time>
      </trkpt>
      <trkpt lat="49.93693" lon="2.43041">
        <ele>55.5</ele>
        <time>2019-10-17T08:29:07Z</time>
      </trkpt>
      <trkpt lat="49.93684" lon="2.43038">
        <ele>54</ele>
        <time>2019-10-17T08:29:14Z</time>
      </trkpt>
      <trkpt lat="49.93674" lon="2.43035">
        <ele>54</ele>
        <time>2019-10-17T08:29:22Z</time>
      </trkpt>
      <trkpt lat="49.93665" lon="2.43032">
        <ele>55.4</ele>
        <time>2019-10-17T08:29:29Z</time>
      </trkpt>
      <trkpt lat="49.93656" lon="2.43029">
        <ele>54.2</ele>
        <time>2019-10-17T08:29:35Z</time>
      </trkpt>
      <trkpt lat="49.93647" lon="2.43024">
        <ele>55</ele>
        <time>2019-10-17T08:29:43Z</time>
      </trkpt>
      <trkpt lat="49.93638" lon="2.4302">
        <ele>53.7</ele>
        <time>2019-10-17T08:29:50Z</time>
      </trkpt>
      <trkpt lat="49.93629" lon="2.43017">
        <ele>54.7</ele>
        <time>2019-10-17T08:29:57Z</time>
      </trkpt>
      <trkpt lat="49.9362" lon="2.43012">
        <ele>54.9</ele>
        <time>2019-10-17T08:30:04Z</time>
      </trkpt>
      <trkpt lat="49.9361" lon="2.43009">
        <ele>53.8</ele>
        <time>2019-10-17T08:30:11Z</time>
      </trkpt>
      <trkpt lat="49.936" lon="2.43006">
        <ele>54.8</ele>
        <time>2019-10-17T08:30:19Z</time>
      </trkpt>
      <trkpt lat="49.93591" lon="2.43003">
        <ele>55.5</ele>
        <time>2019-10-17T08:30:26Z</time>
      </trkpt>
      <trkpt lat="49.93581" lon="2.42998">
        <ele>54.4</ele>
        <time>2019-10-17T08:30:34Z</time>
      </trkpt>
      <trkpt lat="49.93572" lon="2.42995">
        <ele>55.2</ele>
        <time>2019-10-17T08:30:41Z</time>
      </trkpt>
      <trkpt lat="49.93563" lon="2.42991">
        <ele>54.4</ele>
        <time>2019-10-17T08:30:48Z</time>
      </trkpt>
      <trkpt lat="49.93555" lon="2.42987">
        <ele>54.8</ele>
        <time>2019-10-17T08:30:55Z</time>
      </trkpt>
      <trkpt lat="49.93545" lon="2.42984">
        <ele>55.3</ele>
        <time>2019-10-17T08:31:02Z</time>
      </trkpt>
      <trkpt lat="49.93536" lon="2.42983">
        <ele>54.5</ele>
        <time>2019-10-17T08:31:09Z</time>
      </trkpt>
      <trkpt lat="49.93526" lon="2.4298">
        <ele>55.1</ele>
        <time>2019-10-17T08:31:16Z</time>
      </trkpt>
      <trkpt lat="49.93517" lon="2.42977">
        <ele>55.8</ele>
        <time>2019-10-17T08:31:23Z</time>
      </trkpt>
      <trkpt lat="49.93508" lon="2.42974">
        <ele>55.4</ele>
        <time>2019-10-17T08:31:30Z</time>
      </trkpt>
      <trkpt lat="49.93499" lon="2.42971">
        <ele>55.9</ele>
        <time>2019-10-17T08:31:37Z</time>
      </trkpt>
      <trkpt lat="49.93489" lon="2.42969">
        <ele>55.7</ele>
        <time>2019-10-17T08:31:44Z</time>
      </trkpt>
      <trkpt lat="49.9348" lon="2.42966">
        <ele>55.1</ele>
        <time>2019-10-17T08:31:51Z</time>
      </trkpt>
      <trkpt lat="49.93471" lon="2.42964">
        <ele>55.2</ele>
        <time>2019-10-17T08:31:57Z</time>
      </trkpt>
      <trkpt lat="49.93461" lon="2.42963">
        <ele>55.6</ele>
        <time>2019-10-17T08:32:04Z</time>
      </trkpt>
      <trkpt lat="49.93451" lon="2.42961">
        <ele>56.6</ele>
        <time>2019-10-17T08:32:11Z</time>
      </trkpt>
      <trkpt lat="49.93442" lon="2.42959">
        <ele>56.1</ele>
        <time>2019-10-17T08:32:19Z</time>
      </trkpt>
      <trkpt lat="49.93433" lon="2.42956">
        <ele>55.9</ele>
        <time>2019-10-17T08:32:26Z</time>
      </trkpt>
      <trkpt lat="49.93423" lon="2.42953">
        <ele>54.9</ele>
        <time>2019-10-17T08:32:33Z</time>
      </trkpt>
      <trkpt lat="49.93414" lon="2.4295">
        <ele>54.7</ele>
        <time>2019-10-17T08:32:40Z</time>
      </trkpt>
      <trkpt lat="49.93404" lon="2.42947">
        <ele>54.1</ele>
        <time>2019-10-17T08:32:47Z</time>
      </trkpt>
      <trkpt lat="49.93395" lon="2.42943">
        <ele>54.3</ele>
        <time>2019-10-17T08:32:55Z</time>
      </trkpt>
      <trkpt lat="49.93386" lon="2.42937">
        <ele>54</ele>
        <time>2019-10-17T08:33:02Z</time>
      </trkpt>
      <trkpt lat="49.93378" lon="2.4293">
        <ele>53.7</ele>
        <time>2019-10-17T08:33:09Z</time>
      </trkpt>
      <trkpt lat="49.9337" lon="2.42922">
        <ele>54.1</ele>
        <time>2019-10-17T08:33:17Z</time>
      </trkpt>
      <trkpt lat="49.93361" lon="2.42915">
        <ele>51.2</ele>
        <time>2019-10-17T08:33:24Z</time>
      </trkpt>
      <trkpt lat="49.93353" lon="2.42908">
        <ele>53.6</ele>
        <time>2019-10-17T08:33:31Z</time>
      </trkpt>
      <trkpt lat="49.93345" lon="2.429">
        <ele>54.3</ele>
        <time>2019-10-17T08:33:38Z</time>
      </trkpt>
      <trkpt lat="49.93338" lon="2.42892">
        <ele>53.5</ele>
        <time>2019-10-17T08:33:46Z</time>
      </trkpt>
      <trkpt lat="49.9333" lon="2.42883">
        <ele>52.7</ele>
        <time>2019-10-17T08:33:53Z</time>
      </trkpt>
      <trkpt lat="49.93322" lon="2.42875">
        <ele>52.3</ele>
        <time>2019-10-17T08:34:00Z</time>
      </trkpt>
      <trkpt lat="49.93315" lon="2.42864">
        <ele>52.9</ele>
        <time>2019-10-17T08:34:08Z</time>
      </trkpt>
      <trkpt lat="49.93307" lon="2.42855">
        <ele>52.2</ele>
        <time>2019-10-17T08:34:14Z</time>
      </trkpt>
      <trkpt lat="49.93299" lon="2.42846">
        <ele>53.5</ele>
        <time>2019-10-17T08:34:23Z</time>
      </trkpt>
      <trkpt lat="49.93291" lon="2.42836">
        <ele>53.3</ele>
        <time>2019-10-17T08:34:31Z</time>
      </trkpt>
      <trkpt lat="49.93284" lon="2.42826">
        <ele>52.6</ele>
        <time>2019-10-17T08:34:38Z</time>
      </trkpt>
      <trkpt lat="49.93276" lon="2.42817">
        <ele>52.7</ele>
        <time>2019-10-17T08:34:46Z</time>
      </trkpt>
      <trkpt lat="49.9327" lon="2.42806">
        <ele>51.6</ele>
        <time>2019-10-17T08:34:53Z</time>
      </trkpt>
      <trkpt lat="49.93263" lon="2.42796">
        <ele>52.1</ele>
        <time>2019-10-17T08:35:00Z</time>
      </trkpt>
      <trkpt lat="49.93257" lon="2.42785">
        <ele>51.1</ele>
        <time>2019-10-17T08:35:08Z</time>
      </trkpt>
      <trkpt lat="49.9325" lon="2.42775">
        <ele>50.9</ele>
        <time>2019-10-17T08:35:15Z</time>
      </trkpt>
      <trkpt lat="49.93244" lon="2.42765">
        <ele>50.1</ele>
        <time>2019-10-17T08:35:22Z</time>
      </trkpt>
      <trkpt lat="49.93235" lon="2.42755">
        <ele>50.7</ele>
        <time>2019-10-17T08:35:30Z</time>
      </trkpt>
      <trkpt lat="49.93228" lon="2.42746">
        <ele>46.7</ele>
        <time>2019-10-17T08:35:37Z</time>
      </trkpt>
      <trkpt lat="49.93221" lon="2.42735">
        <ele>51</ele>
        <time>2019-10-17T08:35:45Z</time>
      </trkpt>
      <trkpt lat="49.93213" lon="2.42726">
        <ele>51.7</ele>
        <time>2019-10-17T08:35:52Z</time>
      </trkpt>
      <trkpt lat="49.93205" lon="2.42717">
        <ele>51.5</ele>
        <time>2019-10-17T08:35:59Z</time>
      </trkpt>
      <trkpt lat="49.93197" lon="2.42708">
        <ele>51.2</ele>
        <time>2019-10-17T08:36:06Z</time>
      </trkpt>
      <trkpt lat="49.93189" lon="2.427">
        <ele>50.7</ele>
        <time>2019-10-17T08:36:13Z</time>
      </trkpt>
      <trkpt lat="49.93182" lon="2.4269">
        <ele>50.6</ele>
        <time>2019-10-17T08:36:20Z</time>
      </trkpt>
      <trkpt lat="49.93174" lon="2.42683">
        <ele>50.6</ele>
        <time>2019-10-17T08:36:27Z</time>
      </trkpt>
      <trkpt lat="49.93168" lon="2.42672">
        <ele>50.4</ele>
        <time>2019-10-17T08:36:34Z</time>
      </trkpt>
      <trkpt lat="49.93161" lon="2.42662">
        <ele>50.4</ele>
        <time>2019-10-17T08:36:41Z</time>
      </trkpt>
      <trkpt lat="49.93153" lon="2.42652">
        <ele>49.5</ele>
        <time>2019-10-17T08:36:49Z</time>
      </trkpt>
      <trkpt lat="49.93147" lon="2.42639">
        <ele>49.6</ele>
        <time>2019-10-17T08:36:56Z</time>
      </trkpt>
      <trkpt lat="49.93142" lon="2.42625">
        <ele>49.1</ele>
        <time>2019-10-17T08:37:03Z</time>
      </trkpt>
      <trkpt lat="49.93136" lon="2.42614">
        <ele>47.6</ele>
        <time>2019-10-17T08:37:11Z</time>
      </trkpt>
      <trkpt lat="49.93132" lon="2.426">
        <ele>47.5</ele>
        <time>2019-10-17T08:37:18Z</time>
      </trkpt>
      <trkpt lat="49.93127" lon="2.42587">
        <ele>47.5</ele>
        <time>2019-10-17T08:37:25Z</time>
      </trkpt>
      <trkpt lat="49.93121" lon="2.42576">
        <ele>47.2</ele>
        <time>2019-10-17T08:37:34Z</time>
      </trkpt>
      <trkpt lat="49.93115" lon="2.42564">
        <ele>46.8</ele>
        <time>2019-10-17T08:37:42Z</time>
      </trkpt>
      <trkpt lat="49.9311" lon="2.42551">
        <ele>46.9</ele>
        <time>2019-10-17T08:37:50Z</time>
      </trkpt>
      <trkpt lat="49.93107" lon="2.42537">
        <ele>46.3</ele>
        <time>2019-10-17T08:37:58Z</time>
      </trkpt>
      <trkpt lat="49.93104" lon="2.42522">
        <ele>46.3</ele>
        <time>2019-10-17T08:38:06Z</time>
      </trkpt>
      <trkpt lat="49.93102" lon="2.42509">
        <ele>46</ele>
        <time>2019-10-17T08:38:12Z</time>
      </trkpt>
      <trkpt lat="49.93099" lon="2.42493">
        <ele>45.7</ele>
        <time>2019-10-17T08:38:21Z</time>
      </trkpt>
      <trkpt lat="49.93098" lon="2.42478">
        <ele>45.2</ele>
        <time>2019-10-17T08:38:28Z</time>
      </trkpt>
      <trkpt lat="49.93096" lon="2.42463">
        <ele>44.6</ele>
        <time>2019-10-17T08:38:36Z</time>
      </trkpt>
      <trkpt lat="49.93092" lon="2.42449">
        <ele>44</ele>
        <time>2019-10-17T08:38:44Z</time>
      </trkpt>
      <trkpt lat="49.93088" lon="2.42435">
        <ele>43.9</ele>
        <time>2019-10-17T08:38:52Z</time>
      </trkpt>
      <trkpt lat="49.93083" lon="2.42423">
        <ele>44.2</ele>
        <time>2019-10-17T08:38:59Z</time>
      </trkpt>
      <trkpt lat="49.93076" lon="2.42414">
        <ele>44</ele>
        <time>2019-10-17T08:39:06Z</time>
      </trkpt>
      <trkpt lat="49.93069" lon="2.42404">
        <ele>44.7</ele>
        <time>2019-10-17T08:39:14Z</time>
      </trkpt>
      <trkpt lat="49.93061" lon="2.42396">
        <ele>44.4</ele>
        <time>2019-10-17T08:39:22Z</time>
      </trkpt>
      <trkpt lat="49.93053" lon="2.42388">
        <ele>45.6</ele>
        <time>2019-10-17T08:39:35Z</time>
      </trkpt>
      <trkpt lat="49.93048" lon="2.42376">
        <ele>45.5</ele>
        <time>2019-10-17T08:42:05Z</time>
      </trkpt>
      <trkpt lat="49.93049" lon="2.42361">
        <ele>46.8</ele>
        <time>2019-10-17T08:42:15Z</time>
      </trkpt>
      <trkpt lat="49.9305" lon="2.42347">
        <ele>47.1</ele>
        <time>2019-10-17T08:42:24Z</time>
      </trkpt>
      <trkpt lat="49.93052" lon="2.42332">
        <ele>47.5</ele>
        <time>2019-10-17T08:42:32Z</time>
      </trkpt>
      <trkpt lat="49.93056" lon="2.42318">
        <ele>48.3</ele>
        <time>2019-10-17T08:42:40Z</time>
      </trkpt>
      <trkpt lat="49.9306" lon="2.42306">
        <ele>49.3</ele>
        <time>2019-10-17T08:42:47Z</time>
      </trkpt>
      <trkpt lat="49.93062" lon="2.42291">
        <ele>49.3</ele>
        <time>2019-10-17T08:42:55Z</time>
      </trkpt>
      <trkpt lat="49.93062" lon="2.42274">
        <ele>49.9</ele>
        <time>2019-10-17T08:43:03Z</time>
      </trkpt>
      <trkpt lat="49.93067" lon="2.4226">
        <ele>51.4</ele>
        <time>2019-10-17T08:43:11Z</time>
      </trkpt>
      <trkpt lat="49.93069" lon="2.42246">
        <ele>51.1</ele>
        <time>2019-10-17T08:43:18Z</time>
      </trkpt>
      <trkpt lat="49.93073" lon="2.42232">
        <ele>52.4</ele>
        <time>2019-10-17T08:43:27Z</time>
      </trkpt>
      <trkpt lat="49.93078" lon="2.4222">
        <ele>53.3</ele>
        <time>2019-10-17T08:43:34Z</time>
      </trkpt>
      <trkpt lat="49.93083" lon="2.42206">
        <ele>54.2</ele>
        <time>2019-10-17T08:43:42Z</time>
      </trkpt>
      <trkpt lat="49.93087" lon="2.42193">
        <ele>54.3</ele>
        <time>2019-10-17T08:43:50Z</time>
      </trkpt>
      <trkpt lat="49.93092" lon="2.42179">
        <ele>54.6</ele>
        <time>2019-10-17T08:43:59Z</time>
      </trkpt>
      <trkpt lat="49.93097" lon="2.42167">
        <ele>55.3</ele>
        <time>2019-10-17T08:44:06Z</time>
      </trkpt>
      <trkpt lat="49.931" lon="2.42153">
        <ele>56.3</ele>
        <time>2019-10-17T08:44:14Z</time>
      </trkpt>
      <trkpt lat="49.93102" lon="2.42139">
        <ele>56.7</ele>
        <time>2019-10-17T08:44:21Z</time>
      </trkpt>
      <trkpt lat="49.93105" lon="2.42126">
        <ele>56.4</ele>
        <time>2019-10-17T08:44:30Z</time>
      </trkpt>
      <trkpt lat="49.93106" lon="2.42111">
        <ele>57.2</ele>
        <time>2019-10-17T08:44:38Z</time>
      </trkpt>
      <trkpt lat="49.93107" lon="2.42095">
        <ele>57.8</ele>
        <time>2019-10-17T08:44:45Z</time>
      </trkpt>
      <trkpt lat="49.93109" lon="2.42081">
        <ele>57.9</ele>
        <time>2019-10-17T08:44:52Z</time>
      </trkpt>
      <trkpt lat="49.93111" lon="2.42066">
        <ele>58.2</ele>
        <time>2019-10-17T08:44:58Z</time>
      </trkpt>
      <trkpt lat="49.9311" lon="2.42052">
        <ele>58.2</ele>
        <time>2019-10-17T08:45:06Z</time>
      </trkpt>
      <trkpt lat="49.93108" lon="2.42037">
        <ele>58.3</ele>
        <time>2019-10-17T08:45:13Z</time>
      </trkpt>
      <trkpt lat="49.93107" lon="2.42023">
        <ele>58.5</ele>
        <time>2019-10-17T08:45:21Z</time>
      </trkpt>
      <trkpt lat="49.93106" lon="2.42008">
        <ele>58</ele>
        <time>2019-10-17T08:45:29Z</time>
      </trkpt>
      <trkpt lat="49.93104" lon="2.41994">
        <ele>58.7</ele>
        <time>2019-10-17T08:45:36Z</time>
      </trkpt>
      <trkpt lat="49.93103" lon="2.4198">
        <ele>59.9</ele>
        <time>2019-10-17T08:45:44Z</time>
      </trkpt>
      <trkpt lat="49.93101" lon="2.41965">
        <ele>60.2</ele>
        <time>2019-10-17T08:45:51Z</time>
      </trkpt>
      <trkpt lat="49.93098" lon="2.4195">
        <ele>60.3</ele>
        <time>2019-10-17T08:45:59Z</time>
      </trkpt>
      <trkpt lat="49.93097" lon="2.41936">
        <ele>60.8</ele>
        <time>2019-10-17T08:46:06Z</time>
      </trkpt>
      <trkpt lat="49.93094" lon="2.41922">
        <ele>61.6</ele>
        <time>2019-10-17T08:46:13Z</time>
      </trkpt>
      <trkpt lat="49.93091" lon="2.41907">
        <ele>61.9</ele>
        <time>2019-10-17T08:46:20Z</time>
      </trkpt>
      <trkpt lat="49.93088" lon="2.41893">
        <ele>61.9</ele>
        <time>2019-10-17T08:46:27Z</time>
      </trkpt>
      <trkpt lat="49.93085" lon="2.41878">
        <ele>61.9</ele>
        <time>2019-10-17T08:46:34Z</time>
      </trkpt>
      <trkpt lat="49.9308" lon="2.41866">
        <ele>62</ele>
        <time>2019-10-17T08:46:40Z</time>
      </trkpt>
      <trkpt lat="49.93075" lon="2.41853">
        <ele>60.9</ele>
        <time>2019-10-17T08:46:46Z</time>
      </trkpt>
      <trkpt lat="49.9307" lon="2.4184">
        <ele>60.9</ele>
        <time>2019-10-17T08:46:52Z</time>
      </trkpt>
      <trkpt lat="49.93064" lon="2.41829">
        <ele>62</ele>
        <time>2019-10-17T08:46:58Z</time>
      </trkpt>
      <trkpt lat="49.93056" lon="2.41818">
        <ele>62.9</ele>
        <time>2019-10-17T08:47:05Z</time>
      </trkpt>
      <trkpt lat="49.9305" lon="2.41807">
        <ele>62.8</ele>
        <time>2019-10-17T08:47:12Z</time>
      </trkpt>
      <trkpt lat="49.93044" lon="2.41796">
        <ele>62.8</ele>
        <time>2019-10-17T08:47:20Z</time>
      </trkpt>
      <trkpt lat="49.93037" lon="2.41785">
        <ele>63.5</ele>
        <time>2019-10-17T08:47:29Z</time>
      </trkpt>
      <trkpt lat="49.93029" lon="2.41776">
        <ele>62.6</ele>
        <time>2019-10-17T08:47:37Z</time>
      </trkpt>
      <trkpt lat="49.93022" lon="2.41766">
        <ele>63.2</ele>
        <time>2019-10-17T08:47:44Z</time>
      </trkpt>
      <trkpt lat="49.93017" lon="2.41753">
        <ele>63.2</ele>
        <time>2019-10-17T08:47:52Z</time>
      </trkpt>
      <trkpt lat="49.93012" lon="2.4174">
        <ele>62.6</ele>
        <time>2019-10-17T08:47:59Z</time>
      </trkpt>
      <trkpt lat="49.93008" lon="2.41727">
        <ele>63.1</ele>
        <time>2019-10-17T08:48:06Z</time>
      </trkpt>
      <trkpt lat="49.93004" lon="2.41713">
        <ele>63.1</ele>
        <time>2019-10-17T08:48:14Z</time>
      </trkpt>
      <trkpt lat="49.93001" lon="2.417">
        <ele>62.8</ele>
        <time>2019-10-17T08:48:21Z</time>
      </trkpt>
      <trkpt lat="49.92997" lon="2.41686">
        <ele>63</ele>
        <time>2019-10-17T08:48:28Z</time>
      </trkpt>
      <trkpt lat="49.92993" lon="2.41673">
        <ele>63.7</ele>
        <time>2019-10-17T08:48:35Z</time>
      </trkpt>
      <trkpt lat="49.9299" lon="2.41659">
        <ele>63.2</ele>
        <time>2019-10-17T08:48:43Z</time>
      </trkpt>
      <trkpt lat="49.92986" lon="2.41646">
        <ele>62.9</ele>
        <time>2019-10-17T08:48:51Z</time>
      </trkpt>
      <trkpt lat="49.92982" lon="2.41633">
        <ele>62.8</ele>
        <time>2019-10-17T08:48:58Z</time>
      </trkpt>
      <trkpt lat="49.92979" lon="2.41619">
        <ele>63.3</ele>
        <time>2019-10-17T08:49:05Z</time>
      </trkpt>
      <trkpt lat="49.92976" lon="2.41604">
        <ele>63.6</ele>
        <time>2019-10-17T08:49:12Z</time>
      </trkpt>
      <trkpt lat="49.92972" lon="2.4159">
        <ele>63.6</ele>
        <time>2019-10-17T08:49:19Z</time>
      </trkpt>
      <trkpt lat="49.92969" lon="2.41577">
        <ele>63.8</ele>
        <time>2019-10-17T08:49:25Z</time>
      </trkpt>
      <trkpt lat="49.92965" lon="2.41564">
        <ele>64.2</ele>
        <time>2019-10-17T08:49:32Z</time>
      </trkpt>
      <trkpt lat="49.92963" lon="2.4155">
        <ele>63.8</ele>
        <time>2019-10-17T08:49:40Z</time>
      </trkpt>
      <trkpt lat="49.9296" lon="2.41534">
        <ele>62.7</ele>
        <time>2019-10-17T08:49:48Z</time>
      </trkpt>
      <trkpt lat="49.92958" lon="2.4152">
        <ele>63.3</ele>
        <time>2019-10-17T08:49:55Z</time>
      </trkpt>
      <trkpt lat="49.92954" lon="2.41506">
        <ele>63.6</ele>
        <time>2019-10-17T08:50:03Z</time>
      </trkpt>
      <trkpt lat="49.92951" lon="2.41493">
        <ele>64</ele>
        <time>2019-10-17T08:50:11Z</time>
      </trkpt>
      <trkpt lat="49.92948" lon="2.41479">
        <ele>65.1</ele>
        <time>2019-10-17T08:50:18Z</time>
      </trkpt>
      <trkpt lat="49.92945" lon="2.41465">
        <ele>65.7</ele>
        <time>2019-10-17T08:50:25Z</time>
      </trkpt>
      <trkpt lat="49.92944" lon="2.41449">
        <ele>64.8</ele>
        <time>2019-10-17T08:50:32Z</time>
      </trkpt>
      <trkpt lat="49.92941" lon="2.41435">
        <ele>65.2</ele>
        <time>2019-10-17T08:50:40Z</time>
      </trkpt>
      <trkpt lat="49.92938" lon="2.41421">
        <ele>64.7</ele>
        <time>2019-10-17T08:50:49Z</time>
      </trkpt>
      <trkpt lat="49.92935" lon="2.41407">
        <ele>65.5</ele>
        <time>2019-10-17T08:50:55Z</time>
      </trkpt>
      <trkpt lat="49.92933" lon="2.41392">
        <ele>66</ele>
        <time>2019-10-17T08:51:03Z</time>
      </trkpt>
      <trkpt lat="49.92931" lon="2.41377">
        <ele>65.9</ele>
        <time>2019-10-17T08:51:10Z</time>
      </trkpt>
      <trkpt lat="49.92928" lon="2.41362">
        <ele>65.7</ele>
        <time>2019-10-17T08:51:18Z</time>
      </trkpt>
      <trkpt lat="49.92925" lon="2.41349">
        <ele>66.5</ele>
        <time>2019-10-17T08:51:25Z</time>
      </trkpt>
      <trkpt lat="49.92919" lon="2.41337">
        <ele>67.6</ele>
        <time>2019-10-17T08:51:32Z</time>
      </trkpt>
      <trkpt lat="49.92913" lon="2.41326">
        <ele>67.5</ele>
        <time>2019-10-17T08:51:40Z</time>
      </trkpt>
      <trkpt lat="49.92906" lon="2.41316">
        <ele>68</ele>
        <time>2019-10-17T08:51:49Z</time>
      </trkpt>
      <trkpt lat="49.92898" lon="2.41306">
        <ele>68</ele>
        <time>2019-10-17T08:51:59Z</time>
      </trkpt>
      <trkpt lat="49.92893" lon="2.41294">
        <ele>69.5</ele>
        <time>2019-10-17T08:52:06Z</time>
      </trkpt>
      <trkpt lat="49.92886" lon="2.41284">
        <ele>70.7</ele>
        <time>2019-10-17T08:52:14Z</time>
      </trkpt>
      <trkpt lat="49.9288" lon="2.41274">
        <ele>72.7</ele>
        <time>2019-10-17T08:52:21Z</time>
      </trkpt>
      <trkpt lat="49.92874" lon="2.41261">
        <ele>72.6</ele>
        <time>2019-10-17T08:52:29Z</time>
      </trkpt>
      <trkpt lat="49.92865" lon="2.41254">
        <ele>72.3</ele>
        <time>2019-10-17T08:52:37Z</time>
      </trkpt>
      <trkpt lat="49.92855" lon="2.41252">
        <ele>72</ele>
        <time>2019-10-17T08:52:45Z</time>
      </trkpt>
      <trkpt lat="49.92846" lon="2.41254">
        <ele>73.2</ele>
        <time>2019-10-17T08:52:53Z</time>
      </trkpt>
      <trkpt lat="49.92837" lon="2.41258">
        <ele>72.8</ele>
        <time>2019-10-17T08:52:59Z</time>
      </trkpt>
      <trkpt lat="49.92828" lon="2.41262">
        <ele>72.8</ele>
        <time>2019-10-17T08:53:06Z</time>
      </trkpt>
      <trkpt lat="49.92819" lon="2.41262">
        <ele>73.9</ele>
        <time>2019-10-17T08:53:13Z</time>
      </trkpt>
      <trkpt lat="49.92809" lon="2.41266">
        <ele>73.7</ele>
        <time>2019-10-17T08:53:21Z</time>
      </trkpt>
      <trkpt lat="49.928" lon="2.41272">
        <ele>73.8</ele>
        <time>2019-10-17T08:53:29Z</time>
      </trkpt>
      <trkpt lat="49.92791" lon="2.41278">
        <ele>72.6</ele>
        <time>2019-10-17T08:53:36Z</time>
      </trkpt>
      <trkpt lat="49.92782" lon="2.41283">
        <ele>73.1</ele>
        <time>2019-10-17T08:53:42Z</time>
      </trkpt>
      <trkpt lat="49.92773" lon="2.41286">
        <ele>74.1</ele>
        <time>2019-10-17T08:53:49Z</time>
      </trkpt>
      <trkpt lat="49.92763" lon="2.41288">
        <ele>73.8</ele>
        <time>2019-10-17T08:53:55Z</time>
      </trkpt>
      <trkpt lat="49.92754" lon="2.41292">
        <ele>73.8</ele>
        <time>2019-10-17T08:54:02Z</time>
      </trkpt>
      <trkpt lat="49.92744" lon="2.41296">
        <ele>73.8</ele>
        <time>2019-10-17T08:54:10Z</time>
      </trkpt>
      <trkpt lat="49.92735" lon="2.41303">
        <ele>73.9</ele>
        <time>2019-10-17T08:54:18Z</time>
      </trkpt>
      <trkpt lat="49.92725" lon="2.41305">
        <ele>73.8</ele>
        <time>2019-10-17T08:54:26Z</time>
      </trkpt>
      <trkpt lat="49.92715" lon="2.4131">
        <ele>72.9</ele>
        <time>2019-10-17T08:54:34Z</time>
      </trkpt>
      <trkpt lat="49.92706" lon="2.41315">
        <ele>73.1</ele>
        <time>2019-10-17T08:54:41Z</time>
      </trkpt>
      <trkpt lat="49.92697" lon="2.41318">
        <ele>72.8</ele>
        <time>2019-10-17T08:54:48Z</time>
      </trkpt>
      <trkpt lat="49.92687" lon="2.41322">
        <ele>72.4</ele>
        <time>2019-10-17T08:54:55Z</time>
      </trkpt>
      <trkpt lat="49.92678" lon="2.41326">
        <ele>71.6</ele>
        <time>2019-10-17T08:55:01Z</time>
      </trkpt>
      <trkpt lat="49.92669" lon="2.4133">
        <ele>70</ele>
        <time>2019-10-17T08:55:09Z</time>
      </trkpt>
      <trkpt lat="49.9266" lon="2.41334">
        <ele>70.3</ele>
        <time>2019-10-17T08:55:17Z</time>
      </trkpt>
      <trkpt lat="49.9265" lon="2.41338">
        <ele>70.1</ele>
        <time>2019-10-17T08:55:24Z</time>
      </trkpt>
      <trkpt lat="49.92641" lon="2.41343">
        <ele>68.1</ele>
        <time>2019-10-17T08:55:32Z</time>
      </trkpt>
      <trkpt lat="49.92632" lon="2.41348">
        <ele>68.5</ele>
        <time>2019-10-17T08:55:38Z</time>
      </trkpt>
      <trkpt lat="49.92622" lon="2.41353">
        <ele>67.9</ele>
        <time>2019-10-17T08:55:46Z</time>
      </trkpt>
      <trkpt lat="49.92613" lon="2.41357">
        <ele>66.7</ele>
        <time>2019-10-17T08:55:53Z</time>
      </trkpt>
      <trkpt lat="49.92604" lon="2.41361">
        <ele>67</ele>
        <time>2019-10-17T08:56:00Z</time>
      </trkpt>
      <trkpt lat="49.92595" lon="2.41363">
        <ele>66.8</ele>
        <time>2019-10-17T08:56:07Z</time>
      </trkpt>
      <trkpt lat="49.92585" lon="2.41367">
        <ele>65</ele>
        <time>2019-10-17T08:56:15Z</time>
      </trkpt>
      <trkpt lat="49.92575" lon="2.41372">
        <ele>65.4</ele>
        <time>2019-10-17T08:56:24Z</time>
      </trkpt>
      <trkpt lat="49.92566" lon="2.41375">
        <ele>65.8</ele>
        <time>2019-10-17T08:56:33Z</time>
      </trkpt>
      <trkpt lat="49.92557" lon="2.41379">
        <ele>65.3</ele>
        <time>2019-10-17T08:56:45Z</time>
      </trkpt>
      <trkpt lat="49.9255" lon="2.41371">
        <ele>65.1</ele>
        <time>2019-10-17T08:56:52Z</time>
      </trkpt>
      <trkpt lat="49.92544" lon="2.41359">
        <ele>65.1</ele>
        <time>2019-10-17T08:57:01Z</time>
      </trkpt>
      <trkpt lat="49.92539" lon="2.41345">
        <ele>64.7</ele>
        <time>2019-10-17T08:57:10Z</time>
      </trkpt>
      <trkpt lat="49.92534" lon="2.41331">
        <ele>65.2</ele>
        <time>2019-10-17T08:57:19Z</time>
      </trkpt>
      <trkpt lat="49.9253" lon="2.41318">
        <ele>64.9</ele>
        <time>2019-10-17T08:57:27Z</time>
      </trkpt>
      <trkpt lat="49.92526" lon="2.41303">
        <ele>65.5</ele>
        <time>2019-10-17T08:57:34Z</time>
      </trkpt>
      <trkpt lat="49.92521" lon="2.41289">
        <ele>65.7</ele>
        <time>2019-10-17T08:57:42Z</time>
      </trkpt>
      <trkpt lat="49.92518" lon="2.41275">
        <ele>66.2</ele>
        <time>2019-10-17T08:57:49Z</time>
      </trkpt>
      <trkpt lat="49.92514" lon="2.41262">
        <ele>65.6</ele>
        <time>2019-10-17T08:57:57Z</time>
      </trkpt>
      <trkpt lat="49.9251" lon="2.41248">
        <ele>65.9</ele>
        <time>2019-10-17T08:58:04Z</time>
      </trkpt>
      <trkpt lat="49.92505" lon="2.41236">
        <ele>65.9</ele>
        <time>2019-10-17T08:58:12Z</time>
      </trkpt>
      <trkpt lat="49.925" lon="2.41223">
        <ele>66.3</ele>
        <time>2019-10-17T08:58:21Z</time>
      </trkpt>
      <trkpt lat="49.92497" lon="2.41208">
        <ele>66.2</ele>
        <time>2019-10-17T08:58:28Z</time>
      </trkpt>
      <trkpt lat="49.92492" lon="2.41194">
        <ele>67</ele>
        <time>2019-10-17T08:58:36Z</time>
      </trkpt>
      <trkpt lat="49.92488" lon="2.41182">
        <ele>66.4</ele>
        <time>2019-10-17T08:58:43Z</time>
      </trkpt>
      <trkpt lat="49.92484" lon="2.41169">
        <ele>67.3</ele>
        <time>2019-10-17T08:58:50Z</time>
      </trkpt>
      <trkpt lat="49.92478" lon="2.41157">
        <ele>66.7</ele>
        <time>2019-10-17T08:58:58Z</time>
      </trkpt>
      <trkpt lat="49.92472" lon="2.41143">
        <ele>67.8</ele>
        <time>2019-10-17T08:59:06Z</time>
      </trkpt>
      <trkpt lat="49.92466" lon="2.41132">
        <ele>67.8</ele>
        <time>2019-10-17T08:59:14Z</time>
      </trkpt>
      <trkpt lat="49.9246" lon="2.41121">
        <ele>67.9</ele>
        <time>2019-10-17T08:59:21Z</time>
      </trkpt>
      <trkpt lat="49.92454" lon="2.4111">
        <ele>67.6</ele>
        <time>2019-10-17T08:59:28Z</time>
      </trkpt>
      <trkpt lat="49.92448" lon="2.41099">
        <ele>68.2</ele>
        <time>2019-10-17T08:59:36Z</time>
      </trkpt>
      <trkpt lat="49.92441" lon="2.41088">
        <ele>68</ele>
        <time>2019-10-17T08:59:44Z</time>
      </trkpt>
      <trkpt lat="49.92435" lon="2.41076">
        <ele>68.7</ele>
        <time>2019-10-17T08:59:53Z</time>
      </trkpt>
      <trkpt lat="49.92429" lon="2.41065">
        <ele>67.7</ele>
        <time>2019-10-17T09:00:00Z</time>
      </trkpt>
      <trkpt lat="49.92423" lon="2.41055">
        <ele>68.1</ele>
        <time>2019-10-17T09:00:08Z</time>
      </trkpt>
      <trkpt lat="49.92416" lon="2.41045">
        <ele>67.5</ele>
        <time>2019-10-17T09:00:15Z</time>
      </trkpt>
      <trkpt lat="49.9241" lon="2.41032">
        <ele>68.4</ele>
        <time>2019-10-17T09:00:23Z</time>
      </trkpt>
      <trkpt lat="49.92402" lon="2.41022">
        <ele>67.8</ele>
        <time>2019-10-17T09:00:32Z</time>
      </trkpt>
      <trkpt lat="49.92396" lon="2.41009">
        <ele>68.7</ele>
        <time>2019-10-17T09:00:39Z</time>
      </trkpt>
      <trkpt lat="49.9239" lon="2.40997">
        <ele>68.5</ele>
        <time>2019-10-17T09:00:47Z</time>
      </trkpt>
      <trkpt lat="49.92383" lon="2.40987">
        <ele>69.1</ele>
        <time>2019-10-17T09:00:55Z</time>
      </trkpt>
      <trkpt lat="49.92377" lon="2.40976">
        <ele>68.5</ele>
        <time>2019-10-17T09:01:02Z</time>
      </trkpt>
      <trkpt lat="49.92371" lon="2.40964">
        <ele>69.2</ele>
        <time>2019-10-17T09:01:10Z</time>
      </trkpt>
      <trkpt lat="49.92365" lon="2.40954">
        <ele>69.3</ele>
        <time>2019-10-17T09:01:18Z</time>
      </trkpt>
      <trkpt lat="49.92359" lon="2.40942">
        <ele>69.3</ele>
        <time>2019-10-17T09:01:26Z</time>
      </trkpt>
      <trkpt lat="49.92352" lon="2.40931">
        <ele>69.7</ele>
        <time>2019-10-17T09:01:34Z</time>
      </trkpt>
      <trkpt lat="49.92347" lon="2.4092">
        <ele>69.7</ele>
        <time>2019-10-17T09:01:41Z</time>
      </trkpt>
      <trkpt lat="49.92339" lon="2.40908">
        <ele>69.6</ele>
        <time>2019-10-17T09:01:49Z</time>
      </trkpt>
      <trkpt lat="49.92334" lon="2.40894">
        <ele>68.8</ele>
        <time>2019-10-17T09:01:56Z</time>
      </trkpt>
      <trkpt lat="49.92327" lon="2.40884">
        <ele>69.4</ele>
        <time>2019-10-17T09:02:03Z</time>
      </trkpt>
      <trkpt lat="49.92321" lon="2.40872">
        <ele>70.6</ele>
        <time>2019-10-17T09:02:11Z</time>
      </trkpt>
      <trkpt lat="49.92315" lon="2.40859">
        <ele>70.3</ele>
        <time>2019-10-17T09:02:18Z</time>
      </trkpt>
      <trkpt lat="49.92309" lon="2.40848">
        <ele>69.8</ele>
        <time>2019-10-17T09:02:25Z</time>
      </trkpt>
      <trkpt lat="49.92302" lon="2.40839">
        <ele>70.4</ele>
        <time>2019-10-17T09:02:33Z</time>
      </trkpt>
      <trkpt lat="49.92296" lon="2.40827">
        <ele>70.9</ele>
        <time>2019-10-17T09:02:41Z</time>
      </trkpt>
      <trkpt lat="49.92288" lon="2.40817">
        <ele>69.8</ele>
        <time>2019-10-17T09:02:49Z</time>
      </trkpt>
      <trkpt lat="49.92281" lon="2.40807">
        <ele>70.4</ele>
        <time>2019-10-17T09:02:56Z</time>
      </trkpt>
      <trkpt lat="49.92275" lon="2.40794">
        <ele>71.2</ele>
        <time>2019-10-17T09:03:04Z</time>
      </trkpt>
      <trkpt lat="49.9227" lon="2.40783">
        <ele>71.3</ele>
        <time>2019-10-17T09:03:11Z</time>
      </trkpt>
      <trkpt lat="49.92264" lon="2.4077">
        <ele>70.9</ele>
        <time>2019-10-17T09:03:19Z</time>
      </trkpt>
      <trkpt lat="49.92258" lon="2.40759">
        <ele>71.5</ele>
        <time>2019-10-17T09:03:27Z</time>
      </trkpt>
      <trkpt lat="49.9225" lon="2.40751">
        <ele>71.4</ele>
        <time>2019-10-17T09:05:43Z</time>
      </trkpt>
      <trkpt lat="49.92245" lon="2.4074">
        <ele>71.3</ele>
        <time>2019-10-17T09:07:24Z</time>
      </trkpt>
      <trkpt lat="49.92236" lon="2.40737">
        <ele>70.8</ele>
        <time>2019-10-17T09:07:32Z</time>
      </trkpt>
      <trkpt lat="49.92228" lon="2.40745">
        <ele>70.5</ele>
        <time>2019-10-17T09:07:40Z</time>
      </trkpt>
      <trkpt lat="49.9222" lon="2.40754">
        <ele>70.1</ele>
        <time>2019-10-17T09:07:47Z</time>
      </trkpt>
      <trkpt lat="49.92212" lon="2.40763">
        <ele>69.2</ele>
        <time>2019-10-17T09:07:55Z</time>
      </trkpt>
      <trkpt lat="49.92205" lon="2.40773">
        <ele>69.2</ele>
        <time>2019-10-17T09:08:02Z</time>
      </trkpt>
      <trkpt lat="49.92197" lon="2.40781">
        <ele>68</ele>
        <time>2019-10-17T09:08:10Z</time>
      </trkpt>
      <trkpt lat="49.92189" lon="2.40791">
        <ele>68</ele>
        <time>2019-10-17T09:08:19Z</time>
      </trkpt>
      <trkpt lat="49.92182" lon="2.40801">
        <ele>68</ele>
        <time>2019-10-17T09:08:27Z</time>
      </trkpt>
      <trkpt lat="49.92175" lon="2.40809">
        <ele>67.6</ele>
        <time>2019-10-17T09:08:34Z</time>
      </trkpt>
      <trkpt lat="49.92168" lon="2.40818">
        <ele>66.7</ele>
        <time>2019-10-17T09:08:42Z</time>
      </trkpt>
      <trkpt lat="49.92161" lon="2.40827">
        <ele>66.7</ele>
        <time>2019-10-17T09:08:49Z</time>
      </trkpt>
      <trkpt lat="49.92153" lon="2.40836">
        <ele>67.1</ele>
        <time>2019-10-17T09:08:57Z</time>
      </trkpt>
      <trkpt lat="49.92145" lon="2.40845">
        <ele>66</ele>
        <time>2019-10-17T09:09:04Z</time>
      </trkpt>
      <trkpt lat="49.92138" lon="2.40855">
        <ele>65.3</ele>
        <time>2019-10-17T09:09:13Z</time>
      </trkpt>
      <trkpt lat="49.9213" lon="2.40866">
        <ele>65.7</ele>
        <time>2019-10-17T09:09:21Z</time>
      </trkpt>
      <trkpt lat="49.92122" lon="2.40874">
        <ele>65.4</ele>
        <time>2019-10-17T09:09:28Z</time>
      </trkpt>
      <trkpt lat="49.92114" lon="2.40883">
        <ele>64.5</ele>
        <time>2019-10-17T09:09:35Z</time>
      </trkpt>
      <trkpt lat="49.92106" lon="2.40892">
        <ele>64</ele>
        <time>2019-10-17T09:09:43Z</time>
      </trkpt>
      <trkpt lat="49.92099" lon="2.40902">
        <ele>64.3</ele>
        <time>2019-10-17T09:09:50Z</time>
      </trkpt>
      <trkpt lat="49.92091" lon="2.40911">
        <ele>64.5</ele>
        <time>2019-10-17T09:09:58Z</time>
      </trkpt>
      <trkpt lat="49.92084" lon="2.40921">
        <ele>63.7</ele>
        <time>2019-10-17T09:10:05Z</time>
      </trkpt>
      <trkpt lat="49.92076" lon="2.4093">
        <ele>63.1</ele>
        <time>2019-10-17T09:10:13Z</time>
      </trkpt>
      <trkpt lat="49.92069" lon="2.40939">
        <ele>63.2</ele>
        <time>2019-10-17T09:10:20Z</time>
      </trkpt>
      <trkpt lat="49.92062" lon="2.40948">
        <ele>63.8</ele>
        <time>2019-10-17T09:10:27Z</time>
      </trkpt>
      <trkpt lat="49.92055" lon="2.40957">
        <ele>63</ele>
        <time>2019-10-17T09:10:34Z</time>
      </trkpt>
      <trkpt lat="49.92046" lon="2.40966">
        <ele>61.1</ele>
        <time>2019-10-17T09:10:42Z</time>
      </trkpt>
      <trkpt lat="49.92039" lon="2.40975">
        <ele>62.2</ele>
        <time>2019-10-17T09:10:49Z</time>
      </trkpt>
      <trkpt lat="49.92031" lon="2.40983">
        <ele>62.4</ele>
        <time>2019-10-17T09:10:57Z</time>
      </trkpt>
      <trkpt lat="49.92022" lon="2.40992">
        <ele>60.5</ele>
        <time>2019-10-17T09:11:05Z</time>
      </trkpt>
      <trkpt lat="49.92015" lon="2.41001">
        <ele>61.8</ele>
        <time>2019-10-17T09:11:12Z</time>
      </trkpt>
      <trkpt lat="49.92007" lon="2.4101">
        <ele>62.1</ele>
        <time>2019-10-17T09:11:20Z</time>
      </trkpt>
      <trkpt lat="49.91999" lon="2.41018">
        <ele>61.1</ele>
        <time>2019-10-17T09:11:27Z</time>
      </trkpt>
      <trkpt lat="49.91991" lon="2.41028">
        <ele>61.4</ele>
        <time>2019-10-17T09:11:35Z</time>
      </trkpt>
      <trkpt lat="49.91983" lon="2.41036">
        <ele>61.6</ele>
        <time>2019-10-17T09:11:43Z</time>
      </trkpt>
      <trkpt lat="49.91975" lon="2.41044">
        <ele>60.6</ele>
        <time>2019-10-17T09:11:50Z</time>
      </trkpt>
      <trkpt lat="49.91968" lon="2.41053">
        <ele>61</ele>
        <time>2019-10-17T09:11:57Z</time>
      </trkpt>
      <trkpt lat="49.9196" lon="2.41061">
        <ele>60</ele>
        <time>2019-10-17T09:12:05Z</time>
      </trkpt>
      <trkpt lat="49.91953" lon="2.41071">
        <ele>60.6</ele>
        <time>2019-10-17T09:12:14Z</time>
      </trkpt>
      <trkpt lat="49.91945" lon="2.4108">
        <ele>59.9</ele>
        <time>2019-10-17T09:12:22Z</time>
      </trkpt>
      <trkpt lat="49.91938" lon="2.4109">
        <ele>60.8</ele>
        <time>2019-10-17T09:12:30Z</time>
      </trkpt>
      <trkpt lat="49.9193" lon="2.41099">
        <ele>60.8</ele>
        <time>2019-10-17T09:12:38Z</time>
      </trkpt>
      <trkpt lat="49.91923" lon="2.41109">
        <ele>60.6</ele>
        <time>2019-10-17T09:12:46Z</time>
      </trkpt>
      <trkpt lat="49.91915" lon="2.41118">
        <ele>60.6</ele>
        <time>2019-10-17T09:12:54Z</time>
      </trkpt>
      <trkpt lat="49.91908" lon="2.41127">
        <ele>60.3</ele>
        <time>2019-10-17T09:13:02Z</time>
      </trkpt>
      <trkpt lat="49.919" lon="2.41137">
        <ele>60.7</ele>
        <time>2019-10-17T09:13:09Z</time>
      </trkpt>
      <trkpt lat="49.91893" lon="2.41146">
        <ele>60.1</ele>
        <time>2019-10-17T09:13:17Z</time>
      </trkpt>
      <trkpt lat="49.91886" lon="2.41156">
        <ele>58.9</ele>
        <time>2019-10-17T09:13:27Z</time>
      </trkpt>
      <trkpt lat="49.91879" lon="2.41165">
        <ele>59.7</ele>
        <time>2019-10-17T09:13:34Z</time>
      </trkpt>
      <trkpt lat="49.91871" lon="2.41175">
        <ele>59.4</ele>
        <time>2019-10-17T09:13:41Z</time>
      </trkpt>
      <trkpt lat="49.91864" lon="2.41183">
        <ele>58.6</ele>
        <time>2019-10-17T09:13:48Z</time>
      </trkpt>
      <trkpt lat="49.91855" lon="2.41191">
        <ele>58.8</ele>
        <time>2019-10-17T09:13:56Z</time>
      </trkpt>
      <trkpt lat="49.91847" lon="2.412">
        <ele>59.1</ele>
        <time>2019-10-17T09:14:04Z</time>
      </trkpt>
      <trkpt lat="49.9184" lon="2.41209">
        <ele>59.4</ele>
        <time>2019-10-17T09:14:12Z</time>
      </trkpt>
      <trkpt lat="49.91833" lon="2.41219">
        <ele>58.4</ele>
        <time>2019-10-17T09:14:20Z</time>
      </trkpt>
      <trkpt lat="49.91825" lon="2.41227">
        <ele>59.5</ele>
        <time>2019-10-17T09:14:27Z</time>
      </trkpt>
      <trkpt lat="49.91817" lon="2.41235">
        <ele>59.7</ele>
        <time>2019-10-17T09:14:34Z</time>
      </trkpt>
      <trkpt lat="49.9181" lon="2.41243">
        <ele>59.2</ele>
        <time>2019-10-17T09:14:41Z</time>
      </trkpt>
      <trkpt lat="49.91801" lon="2.4125">
        <ele>58.5</ele>
        <time>2019-10-17T09:14:50Z</time>
      </trkpt>
      <trkpt lat="49.91792" lon="2.41256">
        <ele>59.5</ele>
        <time>2019-10-17T09:14:58Z</time>
      </trkpt>
      <trkpt lat="49.91783" lon="2.41261">
        <ele>59.2</ele>
        <time>2019-10-17T09:15:06Z</time>
      </trkpt>
      <trkpt lat="49.91774" lon="2.41266">
        <ele>58.6</ele>
        <time>2019-10-17T09:15:12Z</time>
      </trkpt>
      <trkpt lat="49.91765" lon="2.41271">
        <ele>57.7</ele>
        <time>2019-10-17T09:15:20Z</time>
      </trkpt>
      <trkpt lat="49.91756" lon="2.41276">
        <ele>59</ele>
        <time>2019-10-17T09:15:28Z</time>
      </trkpt>
      <trkpt lat="49.91746" lon="2.41281">
        <ele>58.4</ele>
        <time>2019-10-17T09:15:35Z</time>
      </trkpt>
      <trkpt lat="49.91738" lon="2.41285">
        <ele>57.4</ele>
        <time>2019-10-17T09:15:44Z</time>
      </trkpt>
      <trkpt lat="49.91729" lon="2.41289">
        <ele>57.5</ele>
        <time>2019-10-17T09:15:53Z</time>
      </trkpt>
      <trkpt lat="49.9172" lon="2.41293">
        <ele>56.7</ele>
        <time>2019-10-17T09:16:00Z</time>
      </trkpt>
      <trkpt lat="49.9171" lon="2.41296">
        <ele>55.6</ele>
        <time>2019-10-17T09:16:10Z</time>
      </trkpt>
      <trkpt lat="49.91701" lon="2.413">
        <ele>55.5</ele>
        <time>2019-10-17T09:16:17Z</time>
      </trkpt>
      <trkpt lat="49.91691" lon="2.41302">
        <ele>55.2</ele>
        <time>2019-10-17T09:16:24Z</time>
      </trkpt>
      <trkpt lat="49.91681" lon="2.41305">
        <ele>54.2</ele>
        <time>2019-10-17T09:16:31Z</time>
      </trkpt>
      <trkpt lat="49.91671" lon="2.41307">
        <ele>54.4</ele>
        <time>2019-10-17T09:16:37Z</time>
      </trkpt>
      <trkpt lat="49.91662" lon="2.41309">
        <ele>52.7</ele>
        <time>2019-10-17T09:16:45Z</time>
      </trkpt>
      <trkpt lat="49.91652" lon="2.41312">
        <ele>54.2</ele>
        <time>2019-10-17T09:16:52Z</time>
      </trkpt>
      <trkpt lat="49.91643" lon="2.41312">
        <ele>54.3</ele>
        <time>2019-10-17T09:16:59Z</time>
      </trkpt>
      <trkpt lat="49.91633" lon="2.41314">
        <ele>51.7</ele>
        <time>2019-10-17T09:17:07Z</time>
      </trkpt>
      <trkpt lat="49.91624" lon="2.41316">
        <ele>53.2</ele>
        <time>2019-10-17T09:17:14Z</time>
      </trkpt>
      <trkpt lat="49.91615" lon="2.41318">
        <ele>53.7</ele>
        <time>2019-10-17T09:17:21Z</time>
      </trkpt>
      <trkpt lat="49.91605" lon="2.41318">
        <ele>54</ele>
        <time>2019-10-17T09:17:28Z</time>
      </trkpt>
      <trkpt lat="49.91595" lon="2.4132">
        <ele>52.6</ele>
        <time>2019-10-17T09:17:35Z</time>
      </trkpt>
      <trkpt lat="49.91586" lon="2.41322">
        <ele>52.8</ele>
        <time>2019-10-17T09:17:43Z</time>
      </trkpt>
      <trkpt lat="49.91575" lon="2.41326">
        <ele>53.9</ele>
        <time>2019-10-17T09:17:50Z</time>
      </trkpt>
      <trkpt lat="49.91566" lon="2.41328">
        <ele>55</ele>
        <time>2019-10-17T09:17:58Z</time>
      </trkpt>
      <trkpt lat="49.91555" lon="2.4133">
        <ele>56</ele>
        <time>2019-10-17T09:18:06Z</time>
      </trkpt>
      <trkpt lat="49.91546" lon="2.41331">
        <ele>55.6</ele>
        <time>2019-10-17T09:18:14Z</time>
      </trkpt>
      <trkpt lat="49.91537" lon="2.41335">
        <ele>56.3</ele>
        <time>2019-10-17T09:20:03Z</time>
      </trkpt>
      <trkpt lat="49.91529" lon="2.41343">
        <ele>56</ele>
        <time>2019-10-17T09:20:16Z</time>
      </trkpt>
      <trkpt lat="49.91528" lon="2.41358">
        <ele>56.6</ele>
        <time>2019-10-17T09:20:25Z</time>
      </trkpt>
      <trkpt lat="49.91525" lon="2.41372">
        <ele>56.5</ele>
        <time>2019-10-17T09:20:34Z</time>
      </trkpt>
      <trkpt lat="49.91523" lon="2.41387">
        <ele>56.7</ele>
        <time>2019-10-17T09:20:43Z</time>
      </trkpt>
      <trkpt lat="49.91519" lon="2.41401">
        <ele>56.6</ele>
        <time>2019-10-17T09:20:51Z</time>
      </trkpt>
      <trkpt lat="49.91517" lon="2.41416">
        <ele>56.2</ele>
        <time>2019-10-17T09:20:59Z</time>
      </trkpt>
      <trkpt lat="49.91515" lon="2.4143">
        <ele>56</ele>
        <time>2019-10-17T09:21:07Z</time>
      </trkpt>
      <trkpt lat="49.91513" lon="2.41443">
        <ele>56.3</ele>
        <time>2019-10-17T09:21:14Z</time>
      </trkpt>
      <trkpt lat="49.9151" lon="2.41458">
        <ele>56.4</ele>
        <time>2019-10-17T09:21:21Z</time>
      </trkpt>
      <trkpt lat="49.91507" lon="2.41472">
        <ele>54.9</ele>
        <time>2019-10-17T09:21:29Z</time>
      </trkpt>
      <trkpt lat="49.91505" lon="2.41486">
        <ele>55.7</ele>
        <time>2019-10-17T09:21:36Z</time>
      </trkpt>
      <trkpt lat="49.91503" lon="2.415">
        <ele>56.2</ele>
        <time>2019-10-17T09:21:44Z</time>
      </trkpt>
      <trkpt lat="49.915" lon="2.41515">
        <ele>54.8</ele>
        <time>2019-10-17T09:21:51Z</time>
      </trkpt>
      <trkpt lat="49.91498" lon="2.4153">
        <ele>55.9</ele>
        <time>2019-10-17T09:21:59Z</time>
      </trkpt>
      <trkpt lat="49.91495" lon="2.41545">
        <ele>55</ele>
        <time>2019-10-17T09:22:08Z</time>
      </trkpt>
      <trkpt lat="49.91493" lon="2.4156">
        <ele>56</ele>
        <time>2019-10-17T09:22:16Z</time>
      </trkpt>
      <trkpt lat="49.9149" lon="2.41574">
        <ele>56.4</ele>
        <time>2019-10-17T09:22:24Z</time>
      </trkpt>
      <trkpt lat="49.91488" lon="2.41588">
        <ele>55</ele>
        <time>2019-10-17T09:22:32Z</time>
      </trkpt>
      <trkpt lat="49.91485" lon="2.41603">
        <ele>55.3</ele>
        <time>2019-10-17T09:22:40Z</time>
      </trkpt>
      <trkpt lat="49.91483" lon="2.41618">
        <ele>55.8</ele>
        <time>2019-10-17T09:22:48Z</time>
      </trkpt>
      <trkpt lat="49.9148" lon="2.41632">
        <ele>55.9</ele>
        <time>2019-10-17T09:22:56Z</time>
      </trkpt>
      <trkpt lat="49.91476" lon="2.41647">
        <ele>56.3</ele>
        <time>2019-10-17T09:23:04Z</time>
      </trkpt>
      <trkpt lat="49.91473" lon="2.41661">
        <ele>55.6</ele>
        <time>2019-10-17T09:23:11Z</time>
      </trkpt>
      <trkpt lat="49.91471" lon="2.41676">
        <ele>55.5</ele>
        <time>2019-10-17T09:23:19Z</time>
      </trkpt>
      <trkpt lat="49.91468" lon="2.4169">
        <ele>56.1</ele>
        <time>2019-10-17T09:23:26Z</time>
      </trkpt>
      <trkpt lat="49.91464" lon="2.41704">
        <ele>56.7</ele>
        <time>2019-10-17T09:23:34Z</time>
      </trkpt>
      <trkpt lat="49.91461" lon="2.41718">
        <ele>56.7</ele>
        <time>2019-10-17T09:23:41Z</time>
      </trkpt>
      <trkpt lat="49.91456" lon="2.41731">
        <ele>56.2</ele>
        <time>2019-10-17T09:23:48Z</time>
      </trkpt>
      <trkpt lat="49.91452" lon="2.41745">
        <ele>56.2</ele>
        <time>2019-10-17T09:23:57Z</time>
      </trkpt>
      <trkpt lat="49.91447" lon="2.41759">
        <ele>55</ele>
        <time>2019-10-17T09:24:04Z</time>
      </trkpt>
      <trkpt lat="49.91443" lon="2.41772">
        <ele>55.7</ele>
        <time>2019-10-17T09:24:11Z</time>
      </trkpt>
      <trkpt lat="49.91439" lon="2.41785">
        <ele>56.5</ele>
        <time>2019-10-17T09:24:19Z</time>
      </trkpt>
      <trkpt lat="49.91434" lon="2.41798">
        <ele>56.3</ele>
        <time>2019-10-17T09:24:27Z</time>
      </trkpt>
      <trkpt lat="49.9143" lon="2.41812">
        <ele>56.9</ele>
        <time>2019-10-17T09:24:35Z</time>
      </trkpt>
      <trkpt lat="49.91425" lon="2.41824">
        <ele>56.3</ele>
        <time>2019-10-17T09:24:42Z</time>
      </trkpt>
      <trkpt lat="49.91419" lon="2.41836">
        <ele>56.4</ele>
        <time>2019-10-17T09:24:50Z</time>
      </trkpt>
      <trkpt lat="49.91414" lon="2.41849">
        <ele>56.4</ele>
        <time>2019-10-17T09:24:57Z</time>
      </trkpt>
      <trkpt lat="49.91408" lon="2.41862">
        <ele>55.7</ele>
        <time>2019-10-17T09:25:04Z</time>
      </trkpt>
      <trkpt lat="49.91403" lon="2.41874">
        <ele>54.9</ele>
        <time>2019-10-17T09:25:12Z</time>
      </trkpt>
      <trkpt lat="49.91398" lon="2.41886">
        <ele>55.7</ele>
        <time>2019-10-17T09:25:19Z</time>
      </trkpt>
      <trkpt lat="49.91393" lon="2.41898">
        <ele>55.7</ele>
        <time>2019-10-17T09:25:25Z</time>
      </trkpt>
      <trkpt lat="49.91388" lon="2.4191">
        <ele>54.5</ele>
        <time>2019-10-17T09:25:32Z</time>
      </trkpt>
      <trkpt lat="49.91384" lon="2.41922">
        <ele>54.5</ele>
        <time>2019-10-17T09:25:39Z</time>
      </trkpt>
      <trkpt lat="49.91379" lon="2.41935">
        <ele>54.9</ele>
        <time>2019-10-17T09:25:46Z</time>
      </trkpt>
      <trkpt lat="49.91375" lon="2.41948">
        <ele>54.4</ele>
        <time>2019-10-17T09:25:54Z</time>
      </trkpt>
      <trkpt lat="49.91371" lon="2.41962">
        <ele>53.7</ele>
        <time>2019-10-17T09:26:02Z</time>
      </trkpt>
      <trkpt lat="49.91368" lon="2.41976">
        <ele>53.8</ele>
        <time>2019-10-17T09:26:09Z</time>
      </trkpt>
      <trkpt lat="49.91364" lon="2.4199">
        <ele>54.3</ele>
        <time>2019-10-17T09:26:17Z</time>
      </trkpt>
      <trkpt lat="49.9136" lon="2.42004">
        <ele>53.4</ele>
        <time>2019-10-17T09:26:24Z</time>
      </trkpt>
      <trkpt lat="49.91357" lon="2.42017">
        <ele>52.9</ele>
        <time>2019-10-17T09:26:32Z</time>
      </trkpt>
      <trkpt lat="49.91353" lon="2.42032">
        <ele>53.8</ele>
        <time>2019-10-17T09:26:40Z</time>
      </trkpt>
      <trkpt lat="49.91348" lon="2.42045">
        <ele>53.2</ele>
        <time>2019-10-17T09:26:48Z</time>
      </trkpt>
      <trkpt lat="49.91343" lon="2.42058">
        <ele>53.4</ele>
        <time>2019-10-17T09:26:55Z</time>
      </trkpt>
      <trkpt lat="49.91338" lon="2.42072">
        <ele>53.2</ele>
        <time>2019-10-17T09:27:03Z</time>
      </trkpt>
      <trkpt lat="49.91333" lon="2.42084">
        <ele>52.3</ele>
        <time>2019-10-17T09:27:11Z</time>
      </trkpt>
      <trkpt lat="49.91327" lon="2.42096">
        <ele>53.2</ele>
        <time>2019-10-17T09:27:18Z</time>
      </trkpt>
      <trkpt lat="49.91321" lon="2.42108">
        <ele>52.9</ele>
        <time>2019-10-17T09:27:26Z</time>
      </trkpt>
      <trkpt lat="49.91315" lon="2.4212">
        <ele>51.7</ele>
        <time>2019-10-17T09:27:34Z</time>
      </trkpt>
      <trkpt lat="49.91309" lon="2.42132">
        <ele>51.9</ele>
        <time>2019-10-17T09:27:42Z</time>
      </trkpt>
      <trkpt lat="49.91303" lon="2.42145">
        <ele>52.2</ele>
        <time>2019-10-17T09:27:50Z</time>
      </trkpt>
      <trkpt lat="49.91297" lon="2.42157">
        <ele>52.1</ele>
        <time>2019-10-17T09:27:58Z</time>
      </trkpt>
      <trkpt lat="49.91291" lon="2.42169">
        <ele>52.1</ele>
        <time>2019-10-17T09:28:05Z</time>
      </trkpt>
      <trkpt lat="49.91285" lon="2.4218">
        <ele>50.4</ele>
        <time>2019-10-17T09:28:12Z</time>
      </trkpt>
      <trkpt lat="49.9128" lon="2.42192">
        <ele>50.6</ele>
        <time>2019-10-17T09:28:20Z</time>
      </trkpt>
      <trkpt lat="49.91274" lon="2.42205">
        <ele>51.1</ele>
        <time>2019-10-17T09:28:27Z</time>
      </trkpt>
      <trkpt lat="49.91268" lon="2.42216">
        <ele>50.5</ele>
        <time>2019-10-17T09:28:35Z</time>
      </trkpt>
      <trkpt lat="49.91262" lon="2.42228">
        <ele>49.7</ele>
        <time>2019-10-17T09:28:43Z</time>
      </trkpt>
      <trkpt lat="49.91258" lon="2.4224">
        <ele>49.5</ele>
        <time>2019-10-17T09:28:50Z</time>
      </trkpt>
      <trkpt lat="49.91252" lon="2.42253">
        <ele>50.1</ele>
        <time>2019-10-17T09:28:57Z</time>
      </trkpt>
      <trkpt lat="49.91246" lon="2.42264">
        <ele>49.8</ele>
        <time>2019-10-17T09:29:04Z</time>
      </trkpt>
      <trkpt lat="49.91241" lon="2.42277">
        <ele>49.4</ele>
        <time>2019-10-17T09:29:12Z</time>
      </trkpt>
      <trkpt lat="49.91235" lon="2.42288">
        <ele>49.7</ele>
        <time>2019-10-17T09:29:20Z</time>
      </trkpt>
      <trkpt lat="49.9123" lon="2.42301">
        <ele>49.8</ele>
        <time>2019-10-17T09:29:27Z</time>
      </trkpt>
      <trkpt lat="49.91225" lon="2.42312">
        <ele>49.2</ele>
        <time>2019-10-17T09:29:34Z</time>
      </trkpt>
      <trkpt lat="49.9122" lon="2.42325">
        <ele>48.3</ele>
        <time>2019-10-17T09:29:42Z</time>
      </trkpt>
      <trkpt lat="49.91217" lon="2.42338">
        <ele>48</ele>
        <time>2019-10-17T09:29:50Z</time>
      </trkpt>
      <trkpt lat="49.91212" lon="2.42351">
        <ele>48.7</ele>
        <time>2019-10-17T09:29:57Z</time>
      </trkpt>
      <trkpt lat="49.91209" lon="2.42366">
        <ele>48.5</ele>
        <time>2019-10-17T09:30:04Z</time>
      </trkpt>
      <trkpt lat="49.91204" lon="2.42379">
        <ele>48.3</ele>
        <time>2019-10-17T09:30:12Z</time>
      </trkpt>
      <trkpt lat="49.91199" lon="2.42394">
        <ele>47.3</ele>
        <time>2019-10-17T09:30:19Z</time>
      </trkpt>
      <trkpt lat="49.91196" lon="2.42407">
        <ele>47.1</ele>
        <time>2019-10-17T09:30:26Z</time>
      </trkpt>
      <trkpt lat="49.91193" lon="2.42422">
        <ele>46.7</ele>
        <time>2019-10-17T09:30:34Z</time>
      </trkpt>
      <trkpt lat="49.9119" lon="2.42435">
        <ele>46.7</ele>
        <time>2019-10-17T09:30:41Z</time>
      </trkpt>
      <trkpt lat="49.91187" lon="2.42449">
        <ele>46.4</ele>
        <time>2019-10-17T09:30:48Z</time>
      </trkpt>
      <trkpt lat="49.91185" lon="2.42463">
        <ele>45.7</ele>
        <time>2019-10-17T09:30:55Z</time>
      </trkpt>
      <trkpt lat="49.91184" lon="2.42478">
        <ele>45.7</ele>
        <time>2019-10-17T09:31:03Z</time>
      </trkpt>
      <trkpt lat="49.91182" lon="2.42492">
        <ele>45.3</ele>
        <time>2019-10-17T09:31:10Z</time>
      </trkpt>
      <trkpt lat="49.91182" lon="2.42507">
        <ele>43.6</ele>
        <time>2019-10-17T09:31:19Z</time>
      </trkpt>
      <trkpt lat="49.91181" lon="2.42523">
        <ele>44.7</ele>
        <time>2019-10-17T09:31:27Z</time>
      </trkpt>
      <trkpt lat="49.9118" lon="2.42539">
        <ele>44.2</ele>
        <time>2019-10-17T09:31:34Z</time>
      </trkpt>
      <trkpt lat="49.91181" lon="2.42553">
        <ele>44</ele>
        <time>2019-10-17T09:31:41Z</time>
      </trkpt>
      <trkpt lat="49.91182" lon="2.42568">
        <ele>43.6</ele>
        <time>2019-10-17T09:31:49Z</time>
      </trkpt>
      <trkpt lat="49.91184" lon="2.42583">
        <ele>43.6</ele>
        <time>2019-10-17T09:31:57Z</time>
      </trkpt>
      <trkpt lat="49.91186" lon="2.42597">
        <ele>43.3</ele>
        <time>2019-10-17T09:32:04Z</time>
      </trkpt>
      <trkpt lat="49.9119" lon="2.42611">
        <ele>42.9</ele>
        <time>2019-10-17T09:32:11Z</time>
      </trkpt>
      <trkpt lat="49.91193" lon="2.42625">
        <ele>42.2</ele>
        <time>2019-10-17T09:32:20Z</time>
      </trkpt>
      <trkpt lat="49.91198" lon="2.42638">
        <ele>42.1</ele>
        <time>2019-10-17T09:32:28Z</time>
      </trkpt>
      <trkpt lat="49.912" lon="2.42651">
        <ele>41.3</ele>
        <time>2019-10-17T09:32:36Z</time>
      </trkpt>
      <trkpt lat="49.91205" lon="2.42664">
        <ele>40.4</ele>
        <time>2019-10-17T09:32:45Z</time>
      </trkpt>
      <trkpt lat="49.9121" lon="2.42678">
        <ele>40.7</ele>
        <time>2019-10-17T09:32:53Z</time>
      </trkpt>
      <trkpt lat="49.91213" lon="2.42693">
        <ele>40.5</ele>
        <time>2019-10-17T09:33:00Z</time>
      </trkpt>
      <trkpt lat="49.91217" lon="2.42706">
        <ele>39.6</ele>
        <time>2019-10-17T09:33:09Z</time>
      </trkpt>
      <trkpt lat="49.91222" lon="2.42719">
        <ele>39.4</ele>
        <time>2019-10-17T09:33:18Z</time>
      </trkpt>
      <trkpt lat="49.91226" lon="2.42733">
        <ele>39.6</ele>
        <time>2019-10-17T09:33:25Z</time>
      </trkpt>
      <trkpt lat="49.91228" lon="2.42747">
        <ele>39.4</ele>
        <time>2019-10-17T09:33:32Z</time>
      </trkpt>
      <trkpt lat="49.9123" lon="2.42761">
        <ele>38.9</ele>
        <time>2019-10-17T09:33:39Z</time>
      </trkpt>
      <trkpt lat="49.91234" lon="2.42774">
        <ele>38.9</ele>
        <time>2019-10-17T09:33:46Z</time>
      </trkpt>
      <trkpt lat="49.91235" lon="2.42789">
        <ele>38.6</ele>
        <time>2019-10-17T09:33:53Z</time>
      </trkpt>
      <trkpt lat="49.91236" lon="2.42804">
        <ele>37.6</ele>
        <time>2019-10-17T09:34:02Z</time>
      </trkpt>
      <trkpt lat="49.91235" lon="2.42819">
        <ele>37.6</ele>
        <time>2019-10-17T09:34:10Z</time>
      </trkpt>
      <trkpt lat="49.91232" lon="2.42833">
        <ele>37.4</ele>
        <time>2019-10-17T09:34:15Z</time>
      </trkpt>
      <trkpt lat="49.91228" lon="2.42847">
        <ele>36.9</ele>
        <time>2019-10-17T09:34:23Z</time>
      </trkpt>
      <trkpt lat="49.91223" lon="2.42861">
        <ele>36.2</ele>
        <time>2019-10-17T09:34:31Z</time>
      </trkpt>
      <trkpt lat="49.9122" lon="2.42875">
        <ele>36.3</ele>
        <time>2019-10-17T09:34:40Z</time>
      </trkpt>
      <trkpt lat="49.91218" lon="2.42889">
        <ele>36</ele>
        <time>2019-10-17T09:34:47Z</time>
      </trkpt>
      <trkpt lat="49.91215" lon="2.42903">
        <ele>36.2</ele>
        <time>2019-10-17T09:34:55Z</time>
      </trkpt>
      <trkpt lat="49.91212" lon="2.42917">
        <ele>36.3</ele>
        <time>2019-10-17T09:35:01Z</time>
      </trkpt>
      <trkpt lat="49.91212" lon="2.42932">
        <ele>35.5</ele>
        <time>2019-10-17T09:35:08Z</time>
      </trkpt>
      <trkpt lat="49.91214" lon="2.42946">
        <ele>35</ele>
        <time>2019-10-17T09:35:15Z</time>
      </trkpt>
      <trkpt lat="49.91218" lon="2.42959">
        <ele>34.9</ele>
        <time>2019-10-17T09:35:23Z</time>
      </trkpt>
      <trkpt lat="49.91218" lon="2.42974">
        <ele>33.9</ele>
        <time>2019-10-17T09:35:32Z</time>
      </trkpt>
      <trkpt lat="49.91213" lon="2.42986">
        <ele>36</ele>
        <time>2019-10-17T09:35:41Z</time>
      </trkpt>
      <trkpt lat="49.91206" lon="2.42997">
        <ele>34.4</ele>
        <time>2019-10-17T09:35:49Z</time>
      </trkpt>
      <trkpt lat="49.91199" lon="2.43006">
        <ele>35.2</ele>
        <time>2019-10-17T09:35:57Z</time>
      </trkpt>
      <trkpt lat="49.9119" lon="2.43012">
        <ele>34.9</ele>
        <time>2019-10-17T09:36:04Z</time>
      </trkpt>
      <trkpt lat="49.91181" lon="2.43019">
        <ele>35.1</ele>
        <time>2019-10-17T09:36:13Z</time>
      </trkpt>
      <trkpt lat="49.91173" lon="2.43025">
        <ele>34.7</ele>
        <time>2019-10-17T09:36:21Z</time>
      </trkpt>
      <trkpt lat="49.91167" lon="2.43036">
        <ele>35.2</ele>
        <time>2019-10-17T09:36:31Z</time>
      </trkpt>
      <trkpt lat="49.91167" lon="2.4305">
        <ele>35</ele>
        <time>2019-10-17T09:37:49Z</time>
      </trkpt>
      <trkpt lat="49.91168" lon="2.43064">
        <ele>34.7</ele>
        <time>2019-10-17T09:38:41Z</time>
      </trkpt>
      <trkpt lat="49.9117" lon="2.43079">
        <ele>35.2</ele>
        <time>2019-10-17T09:38:59Z</time>
      </trkpt>
      <trkpt lat="49.91172" lon="2.43094">
        <ele>34.8</ele>
        <time>2019-10-17T09:39:07Z</time>
      </trkpt>
      <trkpt lat="49.91173" lon="2.43108">
        <ele>34.7</ele>
        <time>2019-10-17T09:39:14Z</time>
      </trkpt>
      <trkpt lat="49.91173" lon="2.43123">
        <ele>34.9</ele>
        <time>2019-10-17T09:39:20Z</time>
      </trkpt>
      <trkpt lat="49.9117" lon="2.43137">
        <ele>33.6</ele>
        <time>2019-10-17T09:39:27Z</time>
      </trkpt>
      <trkpt lat="49.9117" lon="2.43153">
        <ele>34.6</ele>
        <time>2019-10-17T09:39:35Z</time>
      </trkpt>
      <trkpt lat="49.9117" lon="2.43167">
        <ele>33.7</ele>
        <time>2019-10-17T09:39:44Z</time>
      </trkpt>
      <trkpt lat="49.91171" lon="2.43171">
        <ele>33.6</ele>
        <time>2019-10-17T09:39:49Z</time>
      </trkpt>
    </trkseg>
  </trk>
</gpx>